EDW86 LSZH-FACT
Flight info
| Callsign | EDW86 |
|---|---|
| Flight time | N/A |
| Altitude | 34000 |
| Route | VEBIT T53 GERSA DCT SOSON DCT ODINA DCT PIDAD/N0469F350 DCT TALEP DCT VAREK DCT ERPIN DCT ETOIL DCT CIRTA UM2 CSO UM998 BOD/N0465F370 UM998 ENBUT DCT EBIMU UG727 KOGAN/N0463F390 UG727 BZ DCT KSA UT943 IMVEX/N0460F400 UT943 UNLOK/N0461F390 UT943 VEDRY/N0459F400 UN185 OKLOK UQ23 DUMDO DCT ERDAS ERDAS1B |
| Aircraft | A343/H-SDE2E3FGHIJ4J5M1RWXY/LB1D1 |
Departure
| Time | 2026-05-07 07:52 |
|---|---|
| Airport | Zürich Airport (LSZH) |
Arrival
| Time | N/A |
|---|---|
| Airport | Cape Town International Airport (FACT) |
| Time | Latitude | Longitude | Altitude | Speed | Heading |
|---|---|---|---|---|---|
| 2026-05-07 07:16 | 47.46191 | 8.55103 | 1397 ft | 0 kts | 155° |
| 2026-05-07 07:38 | 47.46202 | 8.55096 | 1396 ft | 4 kts | 155° |
| 2026-05-07 07:39 | 47.46227 | 8.55080 | 1399 ft | 4 kts | 155° |
| 2026-05-07 07:39 | 47.46248 | 8.55064 | 1399 ft | 4 kts | 161° |
| 2026-05-07 07:39 | 47.46269 | 8.55064 | 1402 ft | 4 kts | 226° |
| 2026-05-07 07:39 | 47.46281 | 8.55097 | 1406 ft | 4 kts | 261° |
| 2026-05-07 07:40 | 47.46282 | 8.55128 | 1397 ft | 0 kts | 275° |
| 2026-05-07 07:42 | 47.46282 | 8.55126 | 1406 ft | 0 kts | 275° |
| 2026-05-07 07:43 | 47.46283 | 8.55119 | 1405 ft | 2 kts | 275° |
| 2026-05-07 07:43 | 47.46284 | 8.55092 | 1404 ft | 4 kts | 275° |
| 2026-05-07 07:43 | 47.46287 | 8.55045 | 1403 ft | 6 kts | 275° |
| 2026-05-07 07:43 | 47.46291 | 8.54980 | 1402 ft | 7 kts | 275° |
| 2026-05-07 07:44 | 47.46295 | 8.54896 | 1394 ft | 9 kts | 274° |
| 2026-05-07 07:44 | 47.46303 | 8.54797 | 1386 ft | 10 kts | 282° |
| 2026-05-07 07:44 | 47.46350 | 8.54718 | 1386 ft | 11 kts | 330° |
| 2026-05-07 07:44 | 47.46416 | 8.54666 | 1387 ft | 10 kts | 333° |
| 2026-05-07 07:45 | 47.46475 | 8.54625 | 1389 ft | 9 kts | 335° |
| 2026-05-07 07:45 | 47.46528 | 8.54588 | 1402 ft | 8 kts | 335° |
| 2026-05-07 07:45 | 47.46575 | 8.54556 | 1402 ft | 7 kts | 335° |
| 2026-05-07 07:45 | 47.46626 | 8.54523 | 1392 ft | 9 kts | 337° |
| 2026-05-07 07:46 | 47.46689 | 8.54481 | 1384 ft | 12 kts | 335° |
| 2026-05-07 07:46 | 47.46775 | 8.54427 | 1383 ft | 15 kts | 339° |
| 2026-05-07 07:46 | 47.46867 | 8.54372 | 1383 ft | 13 kts | 336° |
| 2026-05-07 07:46 | 47.46943 | 8.54320 | 1387 ft | 11 kts | 335° |
| 2026-05-07 07:47 | 47.47002 | 8.54279 | 1385 ft | 8 kts | 334° |
| 2026-05-07 07:47 | 47.47047 | 8.54247 | 1389 ft | 7 kts | 334° |
| 2026-05-07 07:47 | 47.47098 | 8.54211 | 1385 ft | 9 kts | 334° |
| 2026-05-07 07:47 | 47.47159 | 8.54166 | 1386 ft | 11 kts | 334° |
| 2026-05-07 07:48 | 47.47232 | 8.54116 | 1386 ft | 12 kts | 336° |
| 2026-05-07 07:48 | 47.47315 | 8.54061 | 1396 ft | 14 kts | 335° |
| 2026-05-07 07:48 | 47.47396 | 8.54005 | 1404 ft | 11 kts | 335° |
| 2026-05-07 07:48 | 47.47455 | 8.53965 | 1401 ft | 8 kts | 336° |
| 2026-05-07 07:49 | 47.47497 | 8.53937 | 1406 ft | 7 kts | 335° |
| 2026-05-07 07:49 | 47.47546 | 8.53904 | 1405 ft | 8 kts | 335° |
| 2026-05-07 07:49 | 47.47603 | 8.53866 | 1408 ft | 10 kts | 335° |
| 2026-05-07 07:49 | 47.47668 | 8.53821 | 1410 ft | 11 kts | 333° |
| 2026-05-07 07:50 | 47.47701 | 8.53733 | 1412 ft | 10 kts | 262° |
| 2026-05-07 07:50 | 47.47649 | 8.53663 | 1412 ft | 12 kts | 205° |
| 2026-05-07 07:50 | 47.47557 | 8.53624 | 1409 ft | 17 kts | 178° |
| 2026-05-07 07:50 | 47.47371 | 8.53730 | 1403 ft | 50 kts | 155° |
| 2026-05-07 07:51 | 47.46895 | 8.54063 | 1383 ft | 100 kts | 155° |
| 2026-05-07 07:51 | 47.46132 | 8.54584 | 1398 ft | 140 kts | 155° |
| 2026-05-07 07:51 | 47.45150 | 8.55269 | 1460 ft | 167 kts | 155° |
| 2026-05-07 07:51 | 47.44116 | 8.55982 | 1998 ft | 163 kts | 156° |
| 2026-05-07 07:52 | 47.43091 | 8.56709 | 2505 ft | 164 kts | 155° |
| 2026-05-07 07:52 | 47.42215 | 8.57826 | 2901 ft | 172 kts | 122° |
| 2026-05-07 07:52 | 47.41976 | 8.59528 | 3282 ft | 176 kts | 79° |
| 2026-05-07 07:52 | 47.42634 | 8.61047 | 3581 ft | 183 kts | 33° |
| 2026-05-07 07:53 | 47.43839 | 8.61390 | 3977 ft | 178 kts | 343° |
| 2026-05-07 07:53 | 47.44893 | 8.60536 | 4461 ft | 173 kts | 312° |
| 2026-05-07 07:53 | 47.45624 | 8.59085 | 4761 ft | 184 kts | 295° |
| 2026-05-07 07:53 | 47.46048 | 8.57221 | 4958 ft | 200 kts | 284° |
| 2026-05-07 07:54 | 47.46308 | 8.55146 | 5276 ft | 213 kts | 265° |
| 2026-05-07 07:54 | 47.45964 | 8.53008 | 5793 ft | 219 kts | 252° |
| 2026-05-07 07:54 | 47.45582 | 8.50740 | 6132 ft | 235 kts | 261° |
| 2026-05-07 07:54 | 47.45271 | 8.48302 | 6557 ft | 248 kts | 253° |
| 2026-05-07 07:55 | 47.44438 | 8.46016 | 7088 ft | 258 kts | 236° |
| 2026-05-07 07:55 | 47.43362 | 8.43869 | 7712 ft | 263 kts | 235° |
| 2026-05-07 07:55 | 47.42279 | 8.41669 | 8339 ft | 266 kts | 237° |
| 2026-05-07 07:55 | 47.41215 | 8.39422 | 8993 ft | 269 kts | 235° |
| 2026-05-07 07:56 | 47.39856 | 8.37487 | 9531 ft | 278 kts | 213° |
| 2026-05-07 07:56 | 47.38016 | 8.36554 | 10118 ft | 286 kts | 189° |
| 2026-05-07 07:56 | 47.35980 | 8.36808 | 10473 ft | 305 kts | 166° |
| 2026-05-07 07:56 | 47.33941 | 8.37911 | 10768 ft | 320 kts | 158° |
| 2026-05-07 07:57 | 47.31897 | 8.39389 | 11082 ft | 334 kts | 154° |
| 2026-05-07 07:57 | 47.29816 | 8.41056 | 11332 ft | 347 kts | 153° |
| 2026-05-07 07:57 | 47.27661 | 8.42815 | 11600 ft | 360 kts | 153° |
| 2026-05-07 07:57 | 47.25432 | 8.44601 | 11978 ft | 368 kts | 154° |
| 2026-05-07 07:58 | 47.23188 | 8.46353 | 12493 ft | 372 kts | 154° |
| 2026-05-07 07:58 | 47.20849 | 8.48146 | 13059 ft | 376 kts | 155° |
| 2026-05-07 07:58 | 47.18543 | 8.49862 | 13600 ft | 378 kts | 156° |
| 2026-05-07 07:58 | 47.16066 | 8.51135 | 14103 ft | 379 kts | 169° |
| 2026-05-07 07:59 | 47.13471 | 8.51862 | 14642 ft | 381 kts | 173° |
| 2026-05-07 07:59 | 47.10838 | 8.52370 | 15165 ft | 383 kts | 175° |
| 2026-05-07 07:59 | 47.08177 | 8.52760 | 15692 ft | 386 kts | 176° |
| 2026-05-07 07:59 | 47.05486 | 8.53107 | 16175 ft | 389 kts | 176° |
| 2026-05-07 08:00 | 47.02784 | 8.53446 | 16649 ft | 392 kts | 176° |
| 2026-05-07 08:00 | 47.00061 | 8.53800 | 17131 ft | 394 kts | 176° |
| 2026-05-07 08:00 | 46.97323 | 8.54172 | 17617 ft | 397 kts | 176° |
| 2026-05-07 08:00 | 46.94558 | 8.54559 | 18083 ft | 400 kts | 176° |
| 2026-05-07 08:01 | 46.91785 | 8.54957 | 18542 ft | 403 kts | 175° |
| 2026-05-07 08:01 | 46.88983 | 8.55368 | 19071 ft | 404 kts | 176° |
| 2026-05-07 08:01 | 46.86180 | 8.55775 | 19545 ft | 407 kts | 176° |
| 2026-05-07 08:01 | 46.83355 | 8.56179 | 19971 ft | 409 kts | 176° |
| 2026-05-07 08:02 | 46.80510 | 8.56585 | 20366 ft | 412 kts | 176° |
| 2026-05-07 08:02 | 46.77648 | 8.56992 | 20799 ft | 414 kts | 176° |
| 2026-05-07 08:02 | 46.74772 | 8.57402 | 21231 ft | 416 kts | 176° |
| 2026-05-07 08:02 | 46.71882 | 8.57815 | 21652 ft | 419 kts | 176° |
| 2026-05-07 08:03 | 46.68977 | 8.58230 | 22025 ft | 420 kts | 176° |
| 2026-05-07 08:03 | 46.66061 | 8.58647 | 22403 ft | 423 kts | 176° |
| 2026-05-07 08:03 | 46.63128 | 8.59064 | 22785 ft | 424 kts | 176° |
| 2026-05-07 08:03 | 46.60185 | 8.59482 | 23166 ft | 426 kts | 176° |
| 2026-05-07 08:04 | 46.57229 | 8.59910 | 23519 ft | 428 kts | 176° |
| 2026-05-07 08:04 | 46.54255 | 8.60333 | 23874 ft | 430 kts | 176° |
| 2026-05-07 08:04 | 46.51270 | 8.60754 | 24205 ft | 432 kts | 176° |
| 2026-05-07 08:04 | 46.48274 | 8.61175 | 24537 ft | 433 kts | 176° |
| 2026-05-07 08:05 | 46.45267 | 8.61600 | 24834 ft | 435 kts | 176° |
| 2026-05-07 08:05 | 46.42254 | 8.62025 | 25169 ft | 436 kts | 176° |
| 2026-05-07 08:05 | 46.39218 | 8.62453 | 25461 ft | 439 kts | 176° |
| 2026-05-07 08:05 | 46.36181 | 8.62879 | 25797 ft | 439 kts | 176° |
| 2026-05-07 08:06 | 46.33139 | 8.63307 | 26122 ft | 440 kts | 177° |
| 2026-05-07 08:06 | 46.30084 | 8.63738 | 26398 ft | 442 kts | 177° |
| 2026-05-07 08:06 | 46.27025 | 8.64169 | 26716 ft | 442 kts | 177° |
| 2026-05-07 08:06 | 46.23959 | 8.64599 | 26996 ft | 443 kts | 177° |
| 2026-05-07 08:07 | 46.20880 | 8.65029 | 27214 ft | 445 kts | 177° |
| 2026-05-07 08:07 | 46.17829 | 8.65457 | 27445 ft | 447 kts | 177° |
| 2026-05-07 08:07 | 46.14688 | 8.65897 | 27724 ft | 448 kts | 177° |
| 2026-05-07 08:07 | 46.11580 | 8.66331 | 27952 ft | 449 kts | 177° |
| 2026-05-07 08:08 | 46.08506 | 8.66733 | 28194 ft | 450 kts | 179° |
| 2026-05-07 08:08 | 46.05344 | 8.66912 | 28465 ft | 449 kts | 182° |
| 2026-05-07 08:08 | 46.02259 | 8.66933 | 28712 ft | 449 kts | 183° |
| 2026-05-07 08:08 | 45.99129 | 8.66904 | 28905 ft | 451 kts | 183° |
| 2026-05-07 08:09 | 45.95988 | 8.66879 | 29190 ft | 450 kts | 184° |
| 2026-05-07 08:09 | 45.92865 | 8.66882 | 29548 ft | 448 kts | 183° |
| 2026-05-07 08:09 | 45.89753 | 8.66911 | 29913 ft | 446 kts | 183° |
| 2026-05-07 08:09 | 45.86651 | 8.66956 | 30215 ft | 445 kts | 183° |
| 2026-05-07 08:10 | 45.83555 | 8.67013 | 30477 ft | 445 kts | 183° |
| 2026-05-07 08:10 | 45.80460 | 8.67076 | 30708 ft | 445 kts | 183° |
| 2026-05-07 08:10 | 45.77369 | 8.67142 | 30972 ft | 444 kts | 183° |
| 2026-05-07 08:10 | 45.74283 | 8.67208 | 31228 ft | 443 kts | 183° |
| 2026-05-07 08:11 | 45.71189 | 8.67270 | 31384 ft | 445 kts | 183° |
| 2026-05-07 08:11 | 45.68099 | 8.67331 | 31617 ft | 444 kts | 183° |
| 2026-05-07 08:11 | 45.65008 | 8.67392 | 31867 ft | 444 kts | 183° |
| 2026-05-07 08:11 | 45.61882 | 8.67453 | 32075 ft | 444 kts | 183° |
| 2026-05-07 08:12 | 45.58798 | 8.67513 | 32288 ft | 443 kts | 183° |
| 2026-05-07 08:12 | 45.55756 | 8.67573 | 32484 ft | 443 kts | 183° |
| 2026-05-07 08:12 | 45.52674 | 8.67633 | 32705 ft | 442 kts | 183° |
| 2026-05-07 08:12 | 45.49599 | 8.67694 | 32917 ft | 442 kts | 183° |
| 2026-05-07 08:13 | 45.46528 | 8.67754 | 33097 ft | 442 kts | 183° |
| 2026-05-07 08:13 | 45.43455 | 8.67814 | 33290 ft | 441 kts | 183° |
| 2026-05-07 08:13 | 45.40381 | 8.67873 | 33442 ft | 442 kts | 183° |
| 2026-05-07 08:13 | 45.37307 | 8.67933 | 33626 ft | 441 kts | 183° |
| 2026-05-07 08:14 | 45.34245 | 8.67993 | 33826 ft | 440 kts | 183° |
| 2026-05-07 08:14 | 45.31180 | 8.68053 | 33971 ft | 440 kts | 183° |
| 2026-05-07 08:14 | 45.28109 | 8.68111 | 34005 ft | 443 kts | 183° |
| 2026-05-07 08:15 | 45.21961 | 8.68229 | 34009 ft | 440 kts | 184° |
| 2026-05-07 08:15 | 45.15841 | 8.68348 | 34007 ft | 439 kts | 184° |
| 2026-05-07 08:16 | 45.09729 | 8.68467 | 34011 ft | 439 kts | 184° |
| 2026-05-07 08:16 | 45.03623 | 8.68584 | 34008 ft | 438 kts | 184° |
| 2026-05-07 08:17 | 44.97522 | 8.68701 | 34143 ft | 438 kts | 184° |
| 2026-05-07 08:17 | 44.94480 | 8.68757 | 34315 ft | 438 kts | 184° |
| 2026-05-07 08:17 | 44.92463 | 8.68795 | 34410 ft | 438 kts | 184° |
| 2026-05-07 08:17 | 44.89417 | 8.68854 | 34558 ft | 438 kts | 184° |
| 2026-05-07 08:18 | 44.86369 | 8.68913 | 34679 ft | 438 kts | 184° |
| 2026-05-07 08:18 | 44.80259 | 8.69028 | 34903 ft | 440 kts | 184° |
| 2026-05-07 08:18 | 44.77206 | 8.69085 | 35081 ft | 438 kts | 184° |
| 2026-05-07 08:19 | 44.74155 | 8.69144 | 35208 ft | 439 kts | 184° |
| 2026-05-07 08:19 | 44.71100 | 8.69203 | 35334 ft | 439 kts | 184° |
| 2026-05-07 08:19 | 44.68049 | 8.69261 | 35450 ft | 439 kts | 184° |
| 2026-05-07 08:19 | 44.64985 | 8.69319 | 35571 ft | 440 kts | 184° |
| 2026-05-07 08:20 | 44.61925 | 8.69378 | 35674 ft | 440 kts | 184° |
| 2026-05-07 08:20 | 44.55794 | 8.69497 | 35894 ft | 441 kts | 184° |
| 2026-05-07 08:21 | 44.49650 | 8.69611 | 35988 ft | 444 kts | 184° |
| 2026-05-07 08:21 | 44.43446 | 8.69726 | 35985 ft | 445 kts | 184° |
| 2026-05-07 08:22 | 44.37268 | 8.69847 | 35986 ft | 443 kts | 184° |
| 2026-05-07 08:22 | 44.31114 | 8.69962 | 35992 ft | 443 kts | 184° |
| 2026-05-07 08:23 | 44.24948 | 8.70075 | 36000 ft | 443 kts | 184° |
| 2026-05-07 08:23 | 44.18779 | 8.70189 | 35999 ft | 443 kts | 184° |
| 2026-05-07 08:24 | 44.12610 | 8.70305 | 36003 ft | 443 kts | 184° |
| 2026-05-07 08:24 | 44.06441 | 8.70421 | 35995 ft | 443 kts | 184° |
| 2026-05-07 08:25 | 44.00284 | 8.70535 | 35995 ft | 443 kts | 184° |
| 2026-05-07 08:25 | 43.94136 | 8.70647 | 35991 ft | 442 kts | 185° |
| 2026-05-07 08:26 | 43.84923 | 8.70817 | 35994 ft | 441 kts | 185° |
| 2026-05-07 08:26 | 43.78780 | 8.70928 | 35988 ft | 441 kts | 185° |
| 2026-05-07 08:27 | 43.72634 | 8.71041 | 35993 ft | 442 kts | 185° |
| 2026-05-07 08:27 | 43.66525 | 8.71158 | 35986 ft | 442 kts | 185° |
| 2026-05-07 08:28 | 43.60386 | 8.71261 | 35986 ft | 441 kts | 185° |
| 2026-05-07 08:28 | 43.54247 | 8.71265 | 35990 ft | 441 kts | 186° |
| 2026-05-07 08:29 | 43.48144 | 8.70960 | 35990 ft | 435 kts | 193° |
| 2026-05-07 08:29 | 43.42426 | 8.68739 | 35994 ft | 424 kts | 207° |
| 2026-05-07 08:30 | 43.37062 | 8.65400 | 35990 ft | 423 kts | 209° |
| 2026-05-07 08:30 | 43.31757 | 8.61905 | 35986 ft | 423 kts | 209° |
| 2026-05-07 08:31 | 43.26445 | 8.58428 | 35988 ft | 423 kts | 209° |
| 2026-05-07 08:31 | 43.21128 | 8.54987 | 35993 ft | 422 kts | 209° |
| 2026-05-07 08:32 | 43.15809 | 8.51563 | 35990 ft | 423 kts | 209° |
| 2026-05-07 08:32 | 43.10487 | 8.48147 | 35985 ft | 422 kts | 209° |
| 2026-05-07 08:33 | 43.05164 | 8.44737 | 35985 ft | 422 kts | 209° |
| 2026-05-07 08:33 | 42.99855 | 8.41341 | 35986 ft | 421 kts | 209° |
| 2026-05-07 08:34 | 42.94545 | 8.37955 | 35985 ft | 421 kts | 209° |
| 2026-05-07 08:34 | 42.89243 | 8.34574 | 35988 ft | 421 kts | 209° |
| 2026-05-07 08:35 | 42.83937 | 8.31199 | 35991 ft | 420 kts | 209° |
| 2026-05-07 08:35 | 42.78641 | 8.27838 | 35991 ft | 419 kts | 209° |
| 2026-05-07 08:36 | 42.73352 | 8.24484 | 35995 ft | 419 kts | 210° |
| 2026-05-07 08:36 | 42.68072 | 8.21143 | 35996 ft | 418 kts | 210° |
| 2026-05-07 08:37 | 42.62801 | 8.17816 | 35992 ft | 417 kts | 210° |
| 2026-05-07 08:37 | 42.57567 | 8.14519 | 35992 ft | 417 kts | 210° |
| 2026-05-07 08:38 | 42.52267 | 8.11187 | 35986 ft | 417 kts | 210° |
| 2026-05-07 08:38 | 42.47041 | 8.07903 | 35985 ft | 416 kts | 210° |
| 2026-05-07 08:39 | 42.41788 | 8.04609 | 35991 ft | 416 kts | 210° |
| 2026-05-07 08:39 | 42.36534 | 8.01326 | 35993 ft | 416 kts | 210° |
| 2026-05-07 08:40 | 42.31280 | 7.98046 | 35985 ft | 416 kts | 210° |
| 2026-05-07 08:40 | 42.25957 | 7.94949 | 35985 ft | 418 kts | 207° |
| 2026-05-07 08:41 | 42.20556 | 7.92059 | 35985 ft | 418 kts | 207° |
| 2026-05-07 08:41 | 42.15163 | 7.89160 | 35986 ft | 417 kts | 207° |
| 2026-05-07 08:42 | 42.09787 | 7.86227 | 35993 ft | 416 kts | 207° |
| 2026-05-07 08:42 | 42.04425 | 7.83287 | 35993 ft | 417 kts | 207° |
| 2026-05-07 08:43 | 41.99056 | 7.80349 | 35985 ft | 417 kts | 207° |
| 2026-05-07 08:43 | 41.93684 | 7.77417 | 35985 ft | 417 kts | 207° |
| 2026-05-07 08:44 | 41.88314 | 7.74492 | 35988 ft | 416 kts | 207° |
| 2026-05-07 08:44 | 41.82949 | 7.71573 | 35992 ft | 416 kts | 207° |
| 2026-05-07 08:45 | 41.77576 | 7.68658 | 35992 ft | 416 kts | 207° |
| 2026-05-07 08:45 | 41.72214 | 7.65755 | 35993 ft | 416 kts | 207° |
| 2026-05-07 08:46 | 41.66846 | 7.62850 | 35985 ft | 417 kts | 207° |
| 2026-05-07 08:46 | 41.61475 | 7.59945 | 35995 ft | 417 kts | 207° |
| 2026-05-07 08:47 | 41.55953 | 7.57464 | 35996 ft | 424 kts | 198° |
| 2026-05-07 08:47 | 41.50176 | 7.55973 | 35991 ft | 427 kts | 197° |
| 2026-05-07 08:48 | 41.44325 | 7.54648 | 35992 ft | 427 kts | 197° |
| 2026-05-07 08:48 | 41.38472 | 7.53337 | 35992 ft | 426 kts | 197° |
| 2026-05-07 08:49 | 41.32632 | 7.52008 | 35985 ft | 426 kts | 197° |
| 2026-05-07 08:49 | 41.26793 | 7.50669 | 35987 ft | 426 kts | 197° |
| 2026-05-07 08:50 | 41.20946 | 7.49329 | 35991 ft | 426 kts | 197° |
| 2026-05-07 08:50 | 41.15108 | 7.47994 | 35987 ft | 426 kts | 197° |
| 2026-05-07 08:51 | 41.09262 | 7.46665 | 35987 ft | 426 kts | 197° |
| 2026-05-07 08:51 | 41.03428 | 7.45341 | 35993 ft | 425 kts | 198° |
| 2026-05-07 08:52 | 40.97594 | 7.44020 | 35985 ft | 425 kts | 198° |
| 2026-05-07 08:52 | 40.91762 | 7.42700 | 35988 ft | 425 kts | 198° |
| 2026-05-07 08:53 | 40.85938 | 7.41384 | 35992 ft | 424 kts | 198° |
| 2026-05-07 08:53 | 40.80121 | 7.40070 | 35985 ft | 424 kts | 198° |
| 2026-05-07 08:54 | 40.74300 | 7.38761 | 35995 ft | 424 kts | 198° |
| 2026-05-07 08:54 | 40.68488 | 7.37453 | 35985 ft | 423 kts | 198° |
| 2026-05-07 08:55 | 40.62683 | 7.36147 | 35987 ft | 423 kts | 198° |
| 2026-05-07 08:55 | 40.56873 | 7.34843 | 35989 ft | 423 kts | 198° |
| 2026-05-07 08:56 | 40.51065 | 7.33544 | 35995 ft | 423 kts | 198° |
| 2026-05-07 08:56 | 40.45267 | 7.32251 | 35986 ft | 423 kts | 198° |
| 2026-05-07 08:57 | 40.39464 | 7.30958 | 35986 ft | 422 kts | 198° |
| 2026-05-07 08:57 | 40.33713 | 7.29678 | 35986 ft | 422 kts | 199° |
| 2026-05-07 08:58 | 40.27924 | 7.28393 | 35993 ft | 422 kts | 199° |
| 2026-05-07 08:58 | 40.22109 | 7.27119 | 35988 ft | 424 kts | 199° |
| 2026-05-07 08:59 | 40.16320 | 7.25834 | 35993 ft | 422 kts | 199° |
| 2026-05-07 08:59 | 40.10517 | 7.24538 | 35991 ft | 423 kts | 199° |
| 2026-05-07 09:00 | 40.04714 | 7.23252 | 35994 ft | 423 kts | 199° |
| 2026-05-07 09:00 | 39.98912 | 7.21976 | 35989 ft | 423 kts | 199° |
| 2026-05-07 09:01 | 39.93120 | 7.20703 | 35986 ft | 421 kts | 200° |
| 2026-05-07 09:01 | 39.87358 | 7.19444 | 35982 ft | 419 kts | 200° |
| 2026-05-07 09:02 | 39.81612 | 7.18183 | 35980 ft | 419 kts | 200° |
| 2026-05-07 09:02 | 39.75851 | 7.16918 | 35980 ft | 420 kts | 200° |
| 2026-05-07 09:03 | 39.70086 | 7.15701 | 35980 ft | 421 kts | 199° |
| 2026-05-07 09:03 | 39.64275 | 7.14672 | 35980 ft | 422 kts | 198° |
| 2026-05-07 09:04 | 39.58446 | 7.13679 | 35980 ft | 422 kts | 198° |
| 2026-05-07 09:04 | 39.52673 | 7.12668 | 35981 ft | 421 kts | 198° |
| 2026-05-07 09:05 | 39.46875 | 7.11636 | 35971 ft | 421 kts | 199° |
| 2026-05-07 09:05 | 39.41074 | 7.10599 | 35971 ft | 421 kts | 198° |
| 2026-05-07 09:06 | 39.35278 | 7.09571 | 35971 ft | 420 kts | 199° |
| 2026-05-07 09:06 | 39.30430 | 7.08709 | 35980 ft | 420 kts | 199° |
| 2026-05-07 09:07 | 39.24680 | 7.07688 | 35980 ft | 420 kts | 199° |
| 2026-05-07 09:07 | 39.18902 | 7.06668 | 35970 ft | 419 kts | 199° |
| 2026-05-07 09:08 | 39.13113 | 7.05648 | 35972 ft | 420 kts | 199° |
| 2026-05-07 09:08 | 39.07323 | 7.04624 | 35954 ft | 420 kts | 199° |
| 2026-05-07 09:09 | 39.01534 | 7.03607 | 35952 ft | 420 kts | 199° |
| 2026-05-07 09:09 | 38.95749 | 7.02617 | 35952 ft | 420 kts | 199° |
| 2026-05-07 09:10 | 38.89951 | 7.01685 | 35955 ft | 416 kts | 199° |
| 2026-05-07 09:10 | 38.84295 | 7.00796 | 35951 ft | 405 kts | 199° |
| 2026-05-07 09:11 | 38.78712 | 6.99890 | 35952 ft | 404 kts | 200° |
| 2026-05-07 09:11 | 38.73136 | 6.98984 | 35953 ft | 404 kts | 199° |
| 2026-05-07 09:12 | 38.67571 | 6.98079 | 35953 ft | 403 kts | 200° |
| 2026-05-07 09:12 | 38.62009 | 6.97171 | 35952 ft | 403 kts | 199° |
| 2026-05-07 09:13 | 38.56451 | 6.96278 | 35953 ft | 402 kts | 199° |
| 2026-05-07 09:13 | 38.50894 | 6.95388 | 35952 ft | 403 kts | 199° |
| 2026-05-07 09:14 | 38.45331 | 6.94497 | 35943 ft | 403 kts | 199° |
| 2026-05-07 09:14 | 38.39808 | 6.93609 | 35943 ft | 403 kts | 199° |
| 2026-05-07 09:15 | 38.34251 | 6.92717 | 35944 ft | 403 kts | 199° |
| 2026-05-07 09:15 | 38.28689 | 6.91829 | 35943 ft | 403 kts | 199° |
| 2026-05-07 09:16 | 38.23129 | 6.90943 | 35943 ft | 403 kts | 199° |
| 2026-05-07 09:16 | 38.17569 | 6.90058 | 35944 ft | 402 kts | 199° |
| 2026-05-07 09:17 | 38.12026 | 6.89180 | 35944 ft | 401 kts | 199° |
| 2026-05-07 09:17 | 38.06485 | 6.88298 | 35943 ft | 401 kts | 199° |
| 2026-05-07 09:18 | 38.00950 | 6.87420 | 35943 ft | 401 kts | 199° |
| 2026-05-07 09:18 | 37.95412 | 6.86542 | 35934 ft | 401 kts | 199° |
| 2026-05-07 09:19 | 37.89863 | 6.85660 | 35934 ft | 402 kts | 199° |
| 2026-05-07 09:19 | 37.84314 | 6.84788 | 35934 ft | 402 kts | 199° |
| 2026-05-07 09:20 | 37.78761 | 6.83910 | 35934 ft | 402 kts | 199° |
| 2026-05-07 09:20 | 37.73205 | 6.83037 | 35934 ft | 402 kts | 199° |
| 2026-05-07 09:21 | 37.67659 | 6.82167 | 35934 ft | 401 kts | 199° |
| 2026-05-07 09:21 | 37.62119 | 6.81298 | 35934 ft | 401 kts | 199° |
| 2026-05-07 09:22 | 37.56582 | 6.80431 | 35934 ft | 401 kts | 199° |
| 2026-05-07 09:22 | 37.51071 | 6.79567 | 35933 ft | 402 kts | 199° |
| 2026-05-07 09:23 | 37.45525 | 6.78699 | 35933 ft | 402 kts | 199° |
| 2026-05-07 09:23 | 37.39975 | 6.77831 | 35938 ft | 402 kts | 199° |
| 2026-05-07 09:24 | 37.34421 | 6.76965 | 35925 ft | 402 kts | 199° |
| 2026-05-07 09:24 | 37.28866 | 6.76104 | 35925 ft | 402 kts | 199° |
| 2026-05-07 09:25 | 37.23306 | 6.75241 | 35925 ft | 403 kts | 199° |
| 2026-05-07 09:25 | 37.17745 | 6.74379 | 35950 ft | 403 kts | 199° |
| 2026-05-07 09:26 | 37.12179 | 6.73514 | 35962 ft | 403 kts | 199° |
| 2026-05-07 09:26 | 37.06607 | 6.72650 | 35971 ft | 404 kts | 199° |
| 2026-05-07 09:27 | 37.01031 | 6.71789 | 35971 ft | 404 kts | 198° |
| 2026-05-07 09:28 | 36.92657 | 6.70508 | 35964 ft | 404 kts | 198° |
| 2026-05-07 09:28 | 36.87066 | 6.69644 | 35978 ft | 405 kts | 198° |
| 2026-05-07 09:29 | 36.81475 | 6.68787 | 35971 ft | 405 kts | 198° |
| 2026-05-07 09:29 | 36.75892 | 6.67931 | 35966 ft | 404 kts | 198° |
| 2026-05-07 09:30 | 36.70310 | 6.67070 | 35962 ft | 404 kts | 198° |
| 2026-05-07 09:30 | 36.64727 | 6.66215 | 35964 ft | 404 kts | 198° |
| 2026-05-07 09:31 | 36.59137 | 6.65365 | 35969 ft | 405 kts | 198° |
| 2026-05-07 09:31 | 36.53549 | 6.64517 | 35974 ft | 404 kts | 198° |
| 2026-05-07 09:32 | 36.47962 | 6.63664 | 35977 ft | 404 kts | 198° |
| 2026-05-07 09:32 | 36.42389 | 6.62811 | 35993 ft | 403 kts | 198° |
| 2026-05-07 09:33 | 36.36820 | 6.61967 | 35995 ft | 403 kts | 198° |
| 2026-05-07 09:33 | 36.31244 | 6.61127 | 35988 ft | 404 kts | 197° |
| 2026-05-07 09:34 | 36.25525 | 6.60927 | 35993 ft | 415 kts | 191° |
| 2026-05-07 09:34 | 36.19745 | 6.61072 | 35994 ft | 416 kts | 190° |
| 2026-05-07 09:35 | 36.13948 | 6.61274 | 35985 ft | 417 kts | 190° |
| 2026-05-07 09:35 | 36.08149 | 6.61464 | 35984 ft | 417 kts | 190° |
| 2026-05-07 09:36 | 36.02357 | 6.61637 | 35986 ft | 416 kts | 190° |
| 2026-05-07 09:36 | 35.96570 | 6.61808 | 35985 ft | 416 kts | 190° |
| 2026-05-07 09:37 | 35.90759 | 6.61976 | 35981 ft | 419 kts | 190° |
| 2026-05-07 09:37 | 35.84925 | 6.62150 | 35980 ft | 419 kts | 190° |
| 2026-05-07 09:38 | 35.79088 | 6.62328 | 35985 ft | 420 kts | 190° |
| 2026-05-07 09:38 | 35.73246 | 6.62503 | 35972 ft | 420 kts | 189° |
| 2026-05-07 09:39 | 35.67401 | 6.62671 | 35969 ft | 420 kts | 189° |
| 2026-05-07 09:39 | 35.61556 | 6.62846 | 35962 ft | 420 kts | 189° |
| 2026-05-07 09:40 | 35.55712 | 6.63017 | 35960 ft | 421 kts | 189° |
| 2026-05-07 09:40 | 35.49847 | 6.63187 | 35956 ft | 421 kts | 189° |
| 2026-05-07 09:41 | 35.43988 | 6.63360 | 35952 ft | 421 kts | 189° |
| 2026-05-07 09:41 | 35.38168 | 6.63531 | 35952 ft | 421 kts | 189° |
| 2026-05-07 09:42 | 35.32306 | 6.63701 | 35951 ft | 421 kts | 189° |
| 2026-05-07 09:42 | 35.26448 | 6.63877 | 35945 ft | 421 kts | 189° |
| 2026-05-07 09:43 | 35.20570 | 6.64047 | 35945 ft | 423 kts | 189° |
| 2026-05-07 09:43 | 35.14685 | 6.64217 | 35944 ft | 423 kts | 189° |
| 2026-05-07 09:44 | 35.08794 | 6.64386 | 35936 ft | 424 kts | 189° |
| 2026-05-07 09:44 | 35.02898 | 6.64561 | 35934 ft | 424 kts | 189° |
| 2026-05-07 09:45 | 34.96992 | 6.64734 | 35933 ft | 425 kts | 188° |
| 2026-05-07 09:45 | 34.91078 | 6.64906 | 35925 ft | 425 kts | 188° |
| 2026-05-07 09:46 | 34.85176 | 6.65077 | 35926 ft | 424 kts | 188° |
| 2026-05-07 09:46 | 34.79270 | 6.65248 | 35925 ft | 425 kts | 188° |
| 2026-05-07 09:47 | 34.73352 | 6.65421 | 35925 ft | 425 kts | 188° |
| 2026-05-07 09:47 | 34.67433 | 6.65599 | 35892 ft | 426 kts | 188° |
| 2026-05-07 09:48 | 34.61505 | 6.65778 | 35887 ft | 426 kts | 188° |
| 2026-05-07 09:48 | 34.55613 | 6.65956 | 35889 ft | 426 kts | 188° |
| 2026-05-07 09:49 | 34.49686 | 6.66134 | 35885 ft | 426 kts | 188° |
| 2026-05-07 09:49 | 34.43776 | 6.66309 | 35879 ft | 424 kts | 188° |
| 2026-05-07 09:50 | 34.37816 | 6.66452 | 35879 ft | 429 kts | 188° |
| 2026-05-07 09:50 | 34.31817 | 6.66658 | 35883 ft | 428 kts | 188° |
| 2026-05-07 09:51 | 34.25864 | 6.66861 | 35866 ft | 428 kts | 188° |
| 2026-05-07 09:51 | 34.19923 | 6.67025 | 35879 ft | 426 kts | 188° |
| 2026-05-07 09:52 | 34.13982 | 6.67202 | 35883 ft | 428 kts | 187° |
| 2026-05-07 09:52 | 34.08009 | 6.67389 | 35868 ft | 428 kts | 187° |
| 2026-05-07 09:53 | 34.02054 | 6.67579 | 35876 ft | 429 kts | 187° |
| 2026-05-07 09:53 | 33.96096 | 6.67720 | 35861 ft | 427 kts | 187° |
| 2026-05-07 09:54 | 33.91107 | 6.67861 | 35874 ft | 430 kts | 187° |
| 2026-05-07 09:54 | 33.85138 | 6.68070 | 35852 ft | 429 kts | 187° |
| 2026-05-07 09:55 | 33.79183 | 6.68262 | 35864 ft | 427 kts | 187° |
| 2026-05-07 09:55 | 33.73239 | 6.68416 | 35868 ft | 428 kts | 187° |
| 2026-05-07 09:56 | 33.67264 | 6.68559 | 35854 ft | 430 kts | 187° |
| 2026-05-07 09:56 | 33.61259 | 6.68752 | 35863 ft | 433 kts | 187° |
| 2026-05-07 09:57 | 33.55244 | 6.68922 | 35853 ft | 433 kts | 187° |
| 2026-05-07 09:57 | 33.49262 | 6.69088 | 35863 ft | 434 kts | 187° |
| 2026-05-07 09:58 | 33.43249 | 6.69278 | 35852 ft | 431 kts | 187° |
| 2026-05-07 09:58 | 33.37212 | 6.69420 | 35852 ft | 436 kts | 187° |
| 2026-05-07 09:59 | 33.31145 | 6.69617 | 35837 ft | 436 kts | 187° |
| 2026-05-07 09:59 | 33.25103 | 6.69819 | 35835 ft | 434 kts | 187° |
| 2026-05-07 10:00 | 33.19080 | 6.70008 | 35845 ft | 434 kts | 187° |
| 2026-05-07 10:00 | 33.13003 | 6.70184 | 35839 ft | 437 kts | 187° |
| 2026-05-07 10:01 | 33.06928 | 6.70305 | 35830 ft | 437 kts | 187° |
| 2026-05-07 10:01 | 33.00869 | 6.70480 | 35831 ft | 436 kts | 187° |
| 2026-05-07 10:02 | 32.94803 | 6.70701 | 35832 ft | 434 kts | 187° |
| 2026-05-07 10:02 | 32.88725 | 6.70874 | 35837 ft | 437 kts | 187° |
| 2026-05-07 10:03 | 32.82647 | 6.71053 | 35843 ft | 436 kts | 187° |
| 2026-05-07 10:03 | 32.76564 | 6.71220 | 35842 ft | 436 kts | 186° |
| 2026-05-07 10:04 | 32.70501 | 6.71406 | 35840 ft | 436 kts | 187° |
| 2026-05-07 10:04 | 32.64438 | 6.71582 | 35845 ft | 437 kts | 187° |
| 2026-05-07 10:05 | 32.58350 | 6.71748 | 35836 ft | 438 kts | 186° |
| 2026-05-07 10:05 | 32.52235 | 6.71908 | 35841 ft | 440 kts | 187° |
| 2026-05-07 10:06 | 32.46114 | 6.72068 | 35841 ft | 438 kts | 187° |
| 2026-05-07 10:06 | 32.40037 | 6.72261 | 35843 ft | 440 kts | 186° |
| 2026-05-07 10:07 | 32.33874 | 6.72434 | 35849 ft | 438 kts | 186° |
| 2026-05-07 10:07 | 32.27771 | 6.72632 | 35848 ft | 439 kts | 186° |
| 2026-05-07 10:08 | 32.21669 | 6.72797 | 35858 ft | 439 kts | 186° |
| 2026-05-07 10:08 | 32.15545 | 6.72963 | 35856 ft | 440 kts | 186° |
| 2026-05-07 10:09 | 32.09427 | 6.73134 | 35843 ft | 440 kts | 186° |
| 2026-05-07 10:09 | 32.03303 | 6.73308 | 35846 ft | 440 kts | 186° |
| 2026-05-07 10:10 | 31.97181 | 6.73482 | 35855 ft | 440 kts | 186° |
| 2026-05-07 10:10 | 31.91078 | 6.73654 | 35850 ft | 442 kts | 186° |
| 2026-05-07 10:11 | 31.84881 | 6.73828 | 35854 ft | 443 kts | 186° |
| 2026-05-07 10:11 | 31.78762 | 6.74001 | 35856 ft | 443 kts | 186° |
| 2026-05-07 10:12 | 31.72596 | 6.74176 | 35860 ft | 443 kts | 186° |
| 2026-05-07 10:12 | 31.66435 | 6.74350 | 35866 ft | 443 kts | 186° |
| 2026-05-07 10:13 | 31.60275 | 6.74525 | 35854 ft | 443 kts | 186° |
| 2026-05-07 10:13 | 31.54116 | 6.74696 | 35868 ft | 443 kts | 186° |
| 2026-05-07 10:14 | 31.47953 | 6.74867 | 35863 ft | 443 kts | 186° |
| 2026-05-07 10:14 | 31.41790 | 6.75039 | 35861 ft | 443 kts | 186° |
| 2026-05-07 10:15 | 31.35614 | 6.75211 | 35860 ft | 444 kts | 186° |
| 2026-05-07 10:15 | 31.29433 | 6.75383 | 35862 ft | 444 kts | 186° |
| 2026-05-07 10:16 | 31.23260 | 6.75555 | 35852 ft | 444 kts | 186° |
| 2026-05-07 10:16 | 31.17077 | 6.75730 | 35855 ft | 444 kts | 186° |
| 2026-05-07 10:17 | 31.10884 | 6.75901 | 35858 ft | 445 kts | 186° |
| 2026-05-07 10:17 | 31.04693 | 6.76072 | 35853 ft | 445 kts | 186° |
| 2026-05-07 10:18 | 30.98506 | 6.76243 | 35855 ft | 445 kts | 186° |
| 2026-05-07 10:18 | 30.92346 | 6.76413 | 35857 ft | 445 kts | 186° |
| 2026-05-07 10:19 | 30.86148 | 6.76584 | 35877 ft | 445 kts | 186° |
| 2026-05-07 10:19 | 30.79957 | 6.76756 | 35865 ft | 445 kts | 186° |
| 2026-05-07 10:20 | 30.73764 | 6.76927 | 35874 ft | 446 kts | 186° |
| 2026-05-07 10:20 | 30.67556 | 6.77098 | 35871 ft | 446 kts | 186° |
| 2026-05-07 10:21 | 30.61358 | 6.77267 | 35869 ft | 445 kts | 186° |
| 2026-05-07 10:21 | 30.55161 | 6.77438 | 35861 ft | 445 kts | 186° |
| 2026-05-07 10:22 | 30.48963 | 6.77607 | 35881 ft | 447 kts | 186° |
| 2026-05-07 10:22 | 30.42757 | 6.77778 | 35881 ft | 446 kts | 186° |
| 2026-05-07 10:23 | 30.36554 | 6.77950 | 35880 ft | 445 kts | 186° |
| 2026-05-07 10:23 | 30.30363 | 6.78119 | 35881 ft | 445 kts | 186° |
| 2026-05-07 10:24 | 30.24171 | 6.78286 | 35882 ft | 445 kts | 186° |
| 2026-05-07 10:24 | 30.17970 | 6.78454 | 35882 ft | 446 kts | 186° |
| 2026-05-07 10:25 | 30.11757 | 6.78623 | 35888 ft | 446 kts | 186° |
| 2026-05-07 10:25 | 30.05547 | 6.78795 | 35888 ft | 446 kts | 186° |
| 2026-05-07 10:26 | 29.99337 | 6.78963 | 35889 ft | 446 kts | 186° |
| 2026-05-07 10:26 | 29.93134 | 6.79132 | 35887 ft | 446 kts | 186° |
| 2026-05-07 10:27 | 29.86918 | 6.79298 | 35894 ft | 447 kts | 186° |
| 2026-05-07 10:27 | 29.80699 | 6.79466 | 35897 ft | 447 kts | 186° |
| 2026-05-07 10:28 | 29.74483 | 6.79635 | 35897 ft | 447 kts | 186° |
| 2026-05-07 10:28 | 29.68272 | 6.79803 | 35897 ft | 447 kts | 186° |
| 2026-05-07 10:29 | 29.62054 | 6.79970 | 35898 ft | 447 kts | 186° |
| 2026-05-07 10:29 | 29.55832 | 6.80138 | 35904 ft | 447 kts | 186° |
| 2026-05-07 10:30 | 29.46491 | 6.80386 | 35916 ft | 448 kts | 186° |
| 2026-05-07 10:30 | 29.40269 | 6.80554 | 35916 ft | 447 kts | 186° |
| 2026-05-07 10:31 | 29.34050 | 6.80721 | 35916 ft | 448 kts | 186° |
| 2026-05-07 10:31 | 29.27820 | 6.80887 | 35923 ft | 448 kts | 186° |
| 2026-05-07 10:32 | 29.21581 | 6.81053 | 35925 ft | 448 kts | 186° |
| 2026-05-07 10:32 | 29.15388 | 6.81218 | 35926 ft | 448 kts | 187° |
| 2026-05-07 10:33 | 29.09149 | 6.81386 | 35926 ft | 448 kts | 187° |
| 2026-05-07 10:33 | 29.02911 | 6.81551 | 35925 ft | 448 kts | 187° |
| 2026-05-07 10:34 | 28.96677 | 6.81717 | 36054 ft | 448 kts | 187° |
| 2026-05-07 10:34 | 28.93561 | 6.81801 | 36207 ft | 447 kts | 187° |
| 2026-05-07 10:34 | 28.90452 | 6.81885 | 36334 ft | 448 kts | 187° |
| 2026-05-07 10:35 | 28.84216 | 6.82051 | 36552 ft | 448 kts | 187° |
| 2026-05-07 10:35 | 28.81106 | 6.82135 | 36719 ft | 446 kts | 188° |
| 2026-05-07 10:35 | 28.78006 | 6.82217 | 36870 ft | 445 kts | 188° |
| 2026-05-07 10:36 | 28.71808 | 6.82380 | 36934 ft | 443 kts | 188° |
| 2026-05-07 10:36 | 28.65689 | 6.82547 | 36934 ft | 438 kts | 188° |
| 2026-05-07 10:37 | 28.59600 | 6.82704 | 36934 ft | 437 kts | 188° |
| 2026-05-07 10:37 | 28.53529 | 6.82864 | 36932 ft | 437 kts | 188° |
| 2026-05-07 10:38 | 28.47441 | 6.83025 | 36934 ft | 437 kts | 188° |
| 2026-05-07 10:38 | 28.41368 | 6.83184 | 36944 ft | 436 kts | 188° |
| 2026-05-07 10:39 | 28.36323 | 6.83316 | 36945 ft | 437 kts | 188° |
| 2026-05-07 10:39 | 28.30247 | 6.83476 | 36944 ft | 436 kts | 188° |
| 2026-05-07 10:40 | 28.24180 | 6.83634 | 36944 ft | 437 kts | 188° |
| 2026-05-07 10:40 | 28.18106 | 6.83790 | 36944 ft | 436 kts | 189° |
| 2026-05-07 10:41 | 28.11995 | 6.84614 | 36944 ft | 454 kts | 175° |
| 2026-05-07 10:41 | 28.05922 | 6.86874 | 36943 ft | 463 kts | 171° |
| 2026-05-07 10:42 | 27.99871 | 6.89418 | 36953 ft | 465 kts | 170° |
| 2026-05-07 10:42 | 27.93801 | 6.91983 | 36954 ft | 466 kts | 170° |
| 2026-05-07 10:43 | 27.87715 | 6.94518 | 36951 ft | 467 kts | 170° |
| 2026-05-07 10:43 | 27.81603 | 6.97049 | 36953 ft | 467 kts | 170° |
| 2026-05-07 10:44 | 27.75498 | 6.99572 | 36952 ft | 468 kts | 170° |
| 2026-05-07 10:44 | 27.69376 | 7.02092 | 36962 ft | 468 kts | 170° |
| 2026-05-07 10:45 | 27.63256 | 7.04615 | 36961 ft | 468 kts | 170° |
| 2026-05-07 10:45 | 27.57178 | 7.07114 | 36962 ft | 468 kts | 170° |
| 2026-05-07 10:46 | 27.51009 | 7.09646 | 36962 ft | 469 kts | 170° |
| 2026-05-07 10:46 | 27.44873 | 7.12162 | 36963 ft | 470 kts | 170° |
| 2026-05-07 10:47 | 27.38737 | 7.14679 | 36961 ft | 470 kts | 170° |
| 2026-05-07 10:47 | 27.32582 | 7.17204 | 36963 ft | 470 kts | 170° |
| 2026-05-07 10:48 | 27.26477 | 7.19705 | 36970 ft | 470 kts | 170° |
| 2026-05-07 10:48 | 27.20299 | 7.22224 | 36972 ft | 470 kts | 170° |
| 2026-05-07 10:49 | 27.14139 | 7.24731 | 36973 ft | 471 kts | 170° |
| 2026-05-07 10:49 | 27.07980 | 7.27241 | 36971 ft | 471 kts | 170° |
| 2026-05-07 10:50 | 27.01816 | 7.29750 | 36970 ft | 471 kts | 170° |
| 2026-05-07 10:50 | 26.95649 | 7.32260 | 36971 ft | 471 kts | 170° |
| 2026-05-07 10:51 | 26.89479 | 7.34764 | 36973 ft | 472 kts | 170° |
| 2026-05-07 10:51 | 26.83339 | 7.37254 | 36971 ft | 473 kts | 170° |
| 2026-05-07 10:52 | 26.77150 | 7.39762 | 36970 ft | 473 kts | 169° |
| 2026-05-07 10:52 | 26.70966 | 7.42264 | 36969 ft | 474 kts | 169° |
| 2026-05-07 10:53 | 26.64758 | 7.44772 | 36971 ft | 475 kts | 169° |
| 2026-05-07 10:53 | 26.58546 | 7.47280 | 36970 ft | 475 kts | 169° |
| 2026-05-07 10:54 | 26.52333 | 7.49785 | 36973 ft | 475 kts | 169° |
| 2026-05-07 10:54 | 26.46108 | 7.52291 | 36981 ft | 476 kts | 169° |
| 2026-05-07 10:55 | 26.39875 | 7.54799 | 36980 ft | 476 kts | 169° |
| 2026-05-07 10:55 | 26.33634 | 7.57306 | 36982 ft | 477 kts | 169° |
| 2026-05-07 10:56 | 26.27384 | 7.59809 | 36978 ft | 478 kts | 169° |
| 2026-05-07 10:56 | 26.21136 | 7.62317 | 36979 ft | 477 kts | 169° |
| 2026-05-07 10:57 | 26.14884 | 7.64823 | 36979 ft | 477 kts | 169° |
| 2026-05-07 10:57 | 26.08625 | 7.67327 | 36979 ft | 478 kts | 169° |
| 2026-05-07 10:58 | 26.02360 | 7.69832 | 36981 ft | 479 kts | 169° |
| 2026-05-07 10:58 | 25.96098 | 7.72340 | 36979 ft | 479 kts | 169° |
| 2026-05-07 10:59 | 25.89881 | 7.74860 | 36981 ft | 479 kts | 169° |
| 2026-05-07 10:59 | 25.83627 | 7.77396 | 36980 ft | 478 kts | 169° |
| 2026-05-07 11:00 | 25.77389 | 7.79919 | 36989 ft | 477 kts | 169° |
| 2026-05-07 11:00 | 25.71146 | 7.82437 | 36990 ft | 477 kts | 169° |
| 2026-05-07 11:01 | 25.64914 | 7.84946 | 36993 ft | 477 kts | 169° |
| 2026-05-07 11:01 | 25.58680 | 7.87455 | 36987 ft | 477 kts | 169° |
| 2026-05-07 11:02 | 25.52432 | 7.89965 | 36994 ft | 478 kts | 169° |
| 2026-05-07 11:02 | 25.46177 | 7.92479 | 36998 ft | 478 kts | 169° |
| 2026-05-07 11:03 | 25.39927 | 7.94987 | 37001 ft | 478 kts | 169° |
| 2026-05-07 11:03 | 25.33667 | 7.97488 | 37001 ft | 478 kts | 169° |
| 2026-05-07 11:04 | 25.27414 | 7.99991 | 37009 ft | 478 kts | 169° |
| 2026-05-07 11:04 | 25.21150 | 8.02500 | 37008 ft | 480 kts | 169° |
| 2026-05-07 11:05 | 25.14853 | 8.05013 | 37008 ft | 481 kts | 169° |
| 2026-05-07 11:05 | 25.08556 | 8.07525 | 37017 ft | 482 kts | 169° |
| 2026-05-07 11:06 | 25.02247 | 8.10038 | 37017 ft | 482 kts | 169° |
| 2026-05-07 11:06 | 24.95968 | 8.12540 | 37018 ft | 483 kts | 169° |
| 2026-05-07 11:07 | 24.89647 | 8.15054 | 37026 ft | 483 kts | 169° |
| 2026-05-07 11:07 | 24.83321 | 8.17567 | 37026 ft | 484 kts | 169° |
| 2026-05-07 11:08 | 24.76984 | 8.20084 | 37027 ft | 485 kts | 169° |
| 2026-05-07 11:08 | 24.70594 | 8.22616 | 37027 ft | 485 kts | 169° |
| 2026-05-07 11:09 | 24.64280 | 8.25115 | 37034 ft | 485 kts | 168° |
| 2026-05-07 11:09 | 24.57915 | 8.27632 | 37027 ft | 487 kts | 168° |
| 2026-05-07 11:10 | 24.51530 | 8.30153 | 37027 ft | 488 kts | 168° |
| 2026-05-07 11:10 | 24.45139 | 8.32675 | 37036 ft | 488 kts | 168° |
| 2026-05-07 11:11 | 24.38752 | 8.35194 | 37033 ft | 488 kts | 168° |
| 2026-05-07 11:11 | 24.32361 | 8.37710 | 37037 ft | 488 kts | 168° |
| 2026-05-07 11:12 | 24.25967 | 8.40225 | 37054 ft | 489 kts | 168° |
| 2026-05-07 11:12 | 24.19562 | 8.42742 | 37050 ft | 489 kts | 168° |
| 2026-05-07 11:13 | 24.13162 | 8.45253 | 37033 ft | 489 kts | 168° |
| 2026-05-07 11:13 | 24.06754 | 8.47764 | 37033 ft | 489 kts | 168° |
| 2026-05-07 11:14 | 24.00350 | 8.50271 | 37046 ft | 489 kts | 168° |
| 2026-05-07 11:14 | 23.93946 | 8.52778 | 37048 ft | 489 kts | 168° |
| 2026-05-07 11:15 | 23.87528 | 8.55288 | 37046 ft | 490 kts | 168° |
| 2026-05-07 11:15 | 23.81110 | 8.57797 | 37045 ft | 490 kts | 168° |
| 2026-05-07 11:16 | 23.74726 | 8.60286 | 37043 ft | 490 kts | 168° |
| 2026-05-07 11:16 | 23.68310 | 8.62783 | 37041 ft | 490 kts | 168° |
| 2026-05-07 11:17 | 23.61879 | 8.65283 | 37048 ft | 491 kts | 168° |
| 2026-05-07 11:17 | 23.55443 | 8.67786 | 37043 ft | 491 kts | 168° |
| 2026-05-07 11:18 | 23.49023 | 8.70281 | 37049 ft | 491 kts | 168° |
| 2026-05-07 11:18 | 23.42579 | 8.72786 | 37041 ft | 491 kts | 168° |
| 2026-05-07 11:19 | 23.36136 | 8.75280 | 37043 ft | 491 kts | 168° |
| 2026-05-07 11:19 | 23.29695 | 8.77771 | 37041 ft | 491 kts | 168° |
| 2026-05-07 11:20 | 23.23261 | 8.80256 | 37047 ft | 492 kts | 167° |
| 2026-05-07 11:20 | 23.16806 | 8.82751 | 37042 ft | 492 kts | 167° |
| 2026-05-07 11:21 | 23.10357 | 8.85243 | 37042 ft | 492 kts | 167° |
| 2026-05-07 11:21 | 23.03900 | 8.87733 | 37044 ft | 492 kts | 167° |
| 2026-05-07 11:22 | 22.97445 | 8.90221 | 37047 ft | 492 kts | 167° |
| 2026-05-07 11:22 | 22.90998 | 8.92701 | 37046 ft | 492 kts | 167° |
| 2026-05-07 11:23 | 22.84548 | 8.95180 | 37049 ft | 492 kts | 167° |
| 2026-05-07 11:23 | 22.78087 | 8.97661 | 37055 ft | 493 kts | 167° |
| 2026-05-07 11:24 | 22.71627 | 9.00142 | 37052 ft | 493 kts | 167° |
| 2026-05-07 11:24 | 22.65162 | 9.02618 | 37052 ft | 492 kts | 167° |
| 2026-05-07 11:25 | 22.58699 | 9.05090 | 37056 ft | 493 kts | 167° |
| 2026-05-07 11:25 | 22.53323 | 9.07147 | 37055 ft | 493 kts | 167° |
| 2026-05-07 11:26 | 22.46848 | 9.09624 | 37055 ft | 493 kts | 167° |
| 2026-05-07 11:26 | 22.40383 | 9.12090 | 37046 ft | 493 kts | 167° |
| 2026-05-07 11:27 | 22.33910 | 9.14559 | 37046 ft | 494 kts | 167° |
| 2026-05-07 11:27 | 22.27431 | 9.17030 | 37045 ft | 494 kts | 167° |
| 2026-05-07 11:28 | 22.20948 | 9.19499 | 37043 ft | 494 kts | 167° |
| 2026-05-07 11:28 | 22.14476 | 9.21959 | 37045 ft | 493 kts | 167° |
| 2026-05-07 11:29 | 22.08006 | 9.24416 | 37047 ft | 493 kts | 167° |
| 2026-05-07 11:29 | 22.01523 | 9.26874 | 37047 ft | 494 kts | 167° |
| 2026-05-07 11:30 | 21.94976 | 9.28985 | 37049 ft | 485 kts | 178° |
| 2026-05-07 11:30 | 21.88355 | 9.29248 | 37049 ft | 473 kts | 189° |
| 2026-05-07 11:31 | 21.81781 | 9.28887 | 37043 ft | 475 kts | 188° |
| 2026-05-07 11:31 | 21.75136 | 9.29693 | 37050 ft | 491 kts | 169° |
| 2026-05-07 11:32 | 21.65609 | 9.33926 | 37041 ft | 500 kts | 160° |
| 2026-05-07 11:33 | 21.59335 | 9.37193 | 37035 ft | 501 kts | 159° |
| 2026-05-07 11:33 | 21.53045 | 9.40436 | 37034 ft | 501 kts | 160° |
| 2026-05-07 11:34 | 21.46742 | 9.43628 | 37033 ft | 501 kts | 160° |
| 2026-05-07 11:34 | 21.40431 | 9.46801 | 37026 ft | 501 kts | 160° |
| 2026-05-07 11:35 | 21.34120 | 9.49967 | 36989 ft | 501 kts | 160° |
| 2026-05-07 11:35 | 21.27807 | 9.53135 | 36990 ft | 501 kts | 160° |
| 2026-05-07 11:36 | 21.21493 | 9.56301 | 36990 ft | 501 kts | 160° |
| 2026-05-07 11:36 | 21.15178 | 9.59465 | 36990 ft | 501 kts | 160° |
| 2026-05-07 11:37 | 21.08860 | 9.62631 | 36990 ft | 501 kts | 160° |
| 2026-05-07 11:37 | 21.02544 | 9.65788 | 36981 ft | 501 kts | 160° |
| 2026-05-07 11:38 | 20.96232 | 9.68940 | 36981 ft | 501 kts | 160° |
| 2026-05-07 11:38 | 20.89908 | 9.72096 | 36979 ft | 502 kts | 160° |
| 2026-05-07 11:39 | 20.83582 | 9.75249 | 36977 ft | 502 kts | 160° |
| 2026-05-07 11:39 | 20.77258 | 9.78401 | 36980 ft | 502 kts | 160° |
| 2026-05-07 11:40 | 20.70919 | 9.81559 | 36971 ft | 503 kts | 160° |
| 2026-05-07 11:40 | 20.64579 | 9.84713 | 36971 ft | 503 kts | 160° |
| 2026-05-07 11:41 | 20.58227 | 9.87866 | 36971 ft | 503 kts | 160° |
| 2026-05-07 11:41 | 20.51881 | 9.91016 | 36971 ft | 503 kts | 160° |
| 2026-05-07 11:42 | 20.45531 | 9.94166 | 36970 ft | 504 kts | 159° |
| 2026-05-07 11:42 | 20.39169 | 9.97324 | 36962 ft | 504 kts | 159° |
| 2026-05-07 11:43 | 20.32807 | 10.00473 | 36962 ft | 504 kts | 159° |
| 2026-05-07 11:43 | 20.26452 | 10.03613 | 36961 ft | 504 kts | 159° |
| 2026-05-07 11:44 | 20.20126 | 10.06738 | 36962 ft | 504 kts | 159° |
| 2026-05-07 11:44 | 20.13766 | 10.09879 | 36962 ft | 504 kts | 159° |
| 2026-05-07 11:45 | 20.07397 | 10.13020 | 36954 ft | 504 kts | 159° |
| 2026-05-07 11:45 | 20.01035 | 10.16154 | 36952 ft | 504 kts | 159° |
| 2026-05-07 11:46 | 19.94673 | 10.19286 | 36953 ft | 504 kts | 159° |
| 2026-05-07 11:46 | 19.88302 | 10.22420 | 36952 ft | 504 kts | 159° |
| 2026-05-07 11:47 | 19.81928 | 10.25551 | 36953 ft | 505 kts | 159° |
| 2026-05-07 11:47 | 19.75555 | 10.28680 | 36952 ft | 505 kts | 159° |
| 2026-05-07 11:48 | 19.69175 | 10.31812 | 36950 ft | 505 kts | 159° |
| 2026-05-07 11:48 | 19.62793 | 10.34939 | 36943 ft | 506 kts | 159° |
| 2026-05-07 11:49 | 19.56403 | 10.38068 | 36944 ft | 506 kts | 159° |
| 2026-05-07 11:49 | 19.50015 | 10.41195 | 36943 ft | 506 kts | 159° |
| 2026-05-07 11:50 | 19.43623 | 10.44323 | 36944 ft | 506 kts | 159° |
| 2026-05-07 11:50 | 19.37228 | 10.47446 | 36942 ft | 507 kts | 159° |
| 2026-05-07 11:51 | 19.30827 | 10.50571 | 36943 ft | 507 kts | 159° |
| 2026-05-07 11:51 | 19.24418 | 10.53694 | 36943 ft | 507 kts | 159° |
| 2026-05-07 11:52 | 19.18047 | 10.56796 | 36934 ft | 507 kts | 159° |
| 2026-05-07 11:52 | 19.11638 | 10.59918 | 36934 ft | 507 kts | 159° |
| 2026-05-07 11:53 | 19.05229 | 10.63035 | 36934 ft | 507 kts | 159° |
| 2026-05-07 11:53 | 18.98816 | 10.66152 | 36935 ft | 508 kts | 159° |
| 2026-05-07 11:54 | 18.92396 | 10.69268 | 36934 ft | 508 kts | 159° |
| 2026-05-07 11:54 | 18.85976 | 10.72384 | 36934 ft | 507 kts | 159° |
| 2026-05-07 11:55 | 18.79558 | 10.75493 | 36934 ft | 508 kts | 159° |
| 2026-05-07 11:55 | 18.73135 | 10.78604 | 36934 ft | 508 kts | 159° |
| 2026-05-07 11:56 | 18.66710 | 10.81714 | 36934 ft | 508 kts | 158° |
| 2026-05-07 11:56 | 18.60282 | 10.84821 | 36927 ft | 508 kts | 159° |
| 2026-05-07 11:57 | 18.53853 | 10.87926 | 36929 ft | 508 kts | 158° |
| 2026-05-07 11:57 | 18.47431 | 10.91028 | 36930 ft | 508 kts | 158° |
| 2026-05-07 11:58 | 18.41001 | 10.94132 | 36919 ft | 509 kts | 158° |
| 2026-05-07 11:58 | 18.34564 | 10.97235 | 36929 ft | 509 kts | 158° |
| 2026-05-07 11:59 | 18.28135 | 11.00330 | 36927 ft | 508 kts | 158° |
| 2026-05-07 11:59 | 18.21692 | 11.03429 | 36928 ft | 509 kts | 158° |
| 2026-05-07 12:00 | 18.15258 | 11.06523 | 36928 ft | 509 kts | 158° |
| 2026-05-07 12:00 | 18.08824 | 11.09610 | 36913 ft | 509 kts | 158° |
| 2026-05-07 12:01 | 18.02379 | 11.12704 | 36928 ft | 509 kts | 158° |
| 2026-05-07 12:01 | 17.95985 | 11.15771 | 36911 ft | 509 kts | 158° |
| 2026-05-07 12:02 | 17.89545 | 11.18860 | 36929 ft | 508 kts | 158° |
| 2026-05-07 12:02 | 17.83109 | 11.21942 | 36908 ft | 509 kts | 158° |
| 2026-05-07 12:03 | 17.76667 | 11.25026 | 36915 ft | 509 kts | 158° |
| 2026-05-07 12:03 | 17.70227 | 11.28105 | 36914 ft | 509 kts | 158° |
| 2026-05-07 12:04 | 17.63791 | 11.31179 | 36918 ft | 509 kts | 158° |
| 2026-05-07 12:04 | 17.57350 | 11.34255 | 36912 ft | 509 kts | 158° |
| 2026-05-07 12:05 | 17.50916 | 11.37324 | 36915 ft | 508 kts | 158° |
| 2026-05-07 12:05 | 17.44480 | 11.40392 | 36927 ft | 508 kts | 158° |
| 2026-05-07 12:06 | 17.37858 | 11.42893 | 36917 ft | 505 kts | 166° |
| 2026-05-07 12:06 | 17.31110 | 11.44962 | 36909 ft | 505 kts | 167° |
| 2026-05-07 12:07 | 17.24350 | 11.46966 | 36911 ft | 504 kts | 167° |
| 2026-05-07 12:07 | 17.17599 | 11.48969 | 36913 ft | 504 kts | 167° |
| 2026-05-07 12:08 | 17.10895 | 11.50966 | 36915 ft | 504 kts | 167° |
| 2026-05-07 12:08 | 17.04145 | 11.52981 | 36906 ft | 505 kts | 167° |
| 2026-05-07 12:09 | 16.97391 | 11.54997 | 36901 ft | 505 kts | 167° |
| 2026-05-07 12:09 | 16.90639 | 11.57012 | 36894 ft | 505 kts | 167° |
| 2026-05-07 12:10 | 16.83891 | 11.59023 | 36891 ft | 503 kts | 167° |
| 2026-05-07 12:10 | 16.77179 | 11.61021 | 36902 ft | 501 kts | 167° |
| 2026-05-07 12:11 | 16.70471 | 11.63018 | 36896 ft | 501 kts | 167° |
| 2026-05-07 12:11 | 16.63762 | 11.65013 | 36896 ft | 502 kts | 166° |
| 2026-05-07 12:12 | 16.57045 | 11.67009 | 36901 ft | 502 kts | 166° |
| 2026-05-07 12:12 | 16.50332 | 11.69005 | 36895 ft | 502 kts | 166° |
| 2026-05-07 12:13 | 16.43618 | 11.71004 | 36895 ft | 502 kts | 166° |
| 2026-05-07 12:13 | 16.36895 | 11.72997 | 36897 ft | 502 kts | 166° |
| 2026-05-07 12:14 | 16.30172 | 11.74990 | 36895 ft | 502 kts | 166° |
| 2026-05-07 12:14 | 16.23497 | 11.76967 | 36896 ft | 502 kts | 166° |
| 2026-05-07 12:15 | 16.17869 | 11.78633 | 36896 ft | 502 kts | 166° |
| 2026-05-07 12:15 | 16.10060 | 11.80945 | 36888 ft | 502 kts | 166° |
| 2026-05-07 12:16 | 16.03339 | 11.82934 | 36885 ft | 502 kts | 166° |
| 2026-05-07 12:16 | 15.97703 | 11.84599 | 36888 ft | 502 kts | 166° |
| 2026-05-07 12:17 | 15.90980 | 11.86586 | 36885 ft | 502 kts | 166° |
| 2026-05-07 12:17 | 15.84254 | 11.88570 | 36888 ft | 502 kts | 166° |
| 2026-05-07 12:18 | 15.77573 | 11.90540 | 36889 ft | 503 kts | 166° |
| 2026-05-07 12:18 | 15.70840 | 11.92523 | 36886 ft | 502 kts | 166° |
| 2026-05-07 12:19 | 15.64113 | 11.94504 | 36888 ft | 503 kts | 166° |
| 2026-05-07 12:19 | 15.57392 | 11.96481 | 36874 ft | 502 kts | 166° |
| 2026-05-07 12:20 | 15.50672 | 11.98458 | 36870 ft | 502 kts | 166° |
| 2026-05-07 12:20 | 15.43956 | 12.00429 | 36869 ft | 502 kts | 166° |
| 2026-05-07 12:21 | 15.37233 | 12.02404 | 36869 ft | 502 kts | 166° |
| 2026-05-07 12:21 | 15.30511 | 12.04379 | 36869 ft | 502 kts | 166° |
| 2026-05-07 12:22 | 15.23786 | 12.06356 | 36869 ft | 502 kts | 166° |
| 2026-05-07 12:22 | 15.17056 | 12.08322 | 36870 ft | 502 kts | 166° |
| 2026-05-07 12:23 | 15.10330 | 12.10279 | 36870 ft | 502 kts | 166° |
| 2026-05-07 12:23 | 15.03601 | 12.12239 | 36869 ft | 502 kts | 166° |
| 2026-05-07 12:24 | 14.96882 | 12.14200 | 36869 ft | 502 kts | 166° |
| 2026-05-07 12:24 | 14.90160 | 12.16156 | 36869 ft | 501 kts | 166° |
| 2026-05-07 12:25 | 14.83489 | 12.18096 | 36869 ft | 501 kts | 166° |
| 2026-05-07 12:25 | 14.76777 | 12.20049 | 36870 ft | 501 kts | 166° |
| 2026-05-07 12:26 | 14.70067 | 12.21998 | 36869 ft | 501 kts | 166° |
| 2026-05-07 12:26 | 14.63345 | 12.23951 | 36866 ft | 502 kts | 166° |
| 2026-05-07 12:27 | 14.56628 | 12.25901 | 36859 ft | 501 kts | 165° |
| 2026-05-07 12:27 | 14.49918 | 12.27847 | 36860 ft | 501 kts | 166° |
| 2026-05-07 12:28 | 14.43209 | 12.29791 | 36860 ft | 501 kts | 166° |
| 2026-05-07 12:28 | 14.36503 | 12.31732 | 36860 ft | 501 kts | 166° |
| 2026-05-07 12:29 | 14.29792 | 12.33672 | 36859 ft | 501 kts | 166° |
| 2026-05-07 12:29 | 14.23084 | 12.35615 | 36866 ft | 500 kts | 165° |
| 2026-05-07 12:30 | 14.16386 | 12.37555 | 36870 ft | 500 kts | 165° |
| 2026-05-07 12:30 | 14.09687 | 12.39487 | 36869 ft | 500 kts | 166° |
| 2026-05-07 12:31 | 14.02981 | 12.41406 | 36868 ft | 500 kts | 166° |
| 2026-05-07 12:31 | 13.96277 | 12.43324 | 36869 ft | 500 kts | 165° |
| 2026-05-07 12:32 | 13.89574 | 12.45242 | 36869 ft | 500 kts | 165° |
| 2026-05-07 12:32 | 13.82867 | 12.47164 | 36869 ft | 500 kts | 165° |
| 2026-05-07 12:33 | 13.72807 | 12.50048 | 36879 ft | 501 kts | 165° |
| 2026-05-07 12:33 | 13.66097 | 12.51964 | 36877 ft | 500 kts | 165° |
| 2026-05-07 12:34 | 13.59390 | 12.53879 | 36880 ft | 500 kts | 165° |
| 2026-05-07 12:34 | 13.52696 | 12.55791 | 36877 ft | 500 kts | 165° |
| 2026-05-07 12:35 | 13.45993 | 12.57705 | 36878 ft | 500 kts | 165° |
| 2026-05-07 12:35 | 13.39292 | 12.59618 | 36878 ft | 500 kts | 165° |
| 2026-05-07 12:36 | 13.32587 | 12.61528 | 36877 ft | 500 kts | 165° |
| 2026-05-07 12:36 | 13.25860 | 12.63314 | 36882 ft | 499 kts | 170° |
| 2026-05-07 12:37 | 13.19020 | 12.64606 | 36880 ft | 499 kts | 171° |
| 2026-05-07 12:37 | 13.12172 | 12.65811 | 36877 ft | 499 kts | 171° |
| 2026-05-07 12:38 | 13.05320 | 12.67006 | 36877 ft | 500 kts | 171° |
| 2026-05-07 12:38 | 12.98468 | 12.68206 | 36876 ft | 499 kts | 171° |
| 2026-05-07 12:39 | 12.91613 | 12.69413 | 36880 ft | 500 kts | 171° |
| 2026-05-07 12:39 | 12.84803 | 12.70611 | 36879 ft | 500 kts | 171° |
| 2026-05-07 12:40 | 12.77944 | 12.71818 | 36880 ft | 500 kts | 171° |
| 2026-05-07 12:40 | 12.71083 | 12.73025 | 36877 ft | 500 kts | 171° |
| 2026-05-07 12:41 | 12.64222 | 12.74233 | 36878 ft | 500 kts | 171° |
| 2026-05-07 12:41 | 12.57367 | 12.75437 | 36879 ft | 500 kts | 171° |
| 2026-05-07 12:42 | 12.50506 | 12.76641 | 36876 ft | 500 kts | 171° |
| 2026-05-07 12:42 | 12.43639 | 12.77846 | 36876 ft | 500 kts | 171° |
| 2026-05-07 12:43 | 12.36780 | 12.79049 | 36879 ft | 500 kts | 171° |
| 2026-05-07 12:43 | 12.29921 | 12.80253 | 36878 ft | 500 kts | 171° |
| 2026-05-07 12:44 | 12.23053 | 12.81459 | 36879 ft | 500 kts | 171° |
| 2026-05-07 12:44 | 12.16196 | 12.82659 | 36880 ft | 500 kts | 171° |
| 2026-05-07 12:45 | 12.09328 | 12.83856 | 36883 ft | 501 kts | 171° |
| 2026-05-07 12:45 | 12.02463 | 12.85056 | 36897 ft | 500 kts | 171° |
| 2026-05-07 12:46 | 11.95597 | 12.86257 | 36893 ft | 500 kts | 171° |
| 2026-05-07 12:46 | 11.88783 | 12.87447 | 36891 ft | 501 kts | 171° |
| 2026-05-07 12:47 | 11.81916 | 12.88649 | 36893 ft | 501 kts | 171° |
| 2026-05-07 12:47 | 11.75045 | 12.89850 | 36912 ft | 501 kts | 171° |
| 2026-05-07 12:48 | 11.68182 | 12.91047 | 36902 ft | 501 kts | 171° |
| 2026-05-07 12:48 | 11.61312 | 12.92245 | 36910 ft | 501 kts | 171° |
| 2026-05-07 12:49 | 11.54444 | 12.93441 | 36902 ft | 501 kts | 171° |
| 2026-05-07 12:49 | 11.47569 | 12.94638 | 36893 ft | 501 kts | 171° |
| 2026-05-07 12:50 | 11.40707 | 12.95832 | 36898 ft | 500 kts | 171° |
| 2026-05-07 12:50 | 11.33836 | 12.97028 | 36892 ft | 501 kts | 171° |
| 2026-05-07 12:51 | 11.26965 | 12.98224 | 36907 ft | 501 kts | 171° |
| 2026-05-07 12:51 | 11.20093 | 12.99419 | 36901 ft | 501 kts | 171° |
| 2026-05-07 12:52 | 11.13222 | 13.00614 | 36907 ft | 501 kts | 171° |
| 2026-05-07 12:52 | 11.06355 | 13.01807 | 36907 ft | 501 kts | 171° |
| 2026-05-07 12:53 | 10.99481 | 13.03001 | 36904 ft | 501 kts | 171° |
| 2026-05-07 12:53 | 10.92611 | 13.04192 | 36900 ft | 501 kts | 171° |
| 2026-05-07 12:54 | 10.85731 | 13.05386 | 36911 ft | 502 kts | 171° |
| 2026-05-07 12:54 | 10.78849 | 13.06582 | 36902 ft | 502 kts | 171° |
| 2026-05-07 12:55 | 10.71964 | 13.07775 | 36912 ft | 502 kts | 171° |
| 2026-05-07 12:55 | 10.65129 | 13.08957 | 36912 ft | 501 kts | 171° |
| 2026-05-07 12:56 | 10.58259 | 13.10146 | 36899 ft | 501 kts | 171° |
| 2026-05-07 12:56 | 10.51385 | 13.11336 | 36903 ft | 501 kts | 171° |
| 2026-05-07 12:57 | 10.44522 | 13.12523 | 36914 ft | 501 kts | 171° |
| 2026-05-07 12:57 | 10.37644 | 13.13711 | 36901 ft | 501 kts | 171° |
| 2026-05-07 12:58 | 10.30768 | 13.14900 | 36889 ft | 502 kts | 171° |
| 2026-05-07 12:58 | 10.23884 | 13.16091 | 36890 ft | 502 kts | 171° |
| 2026-05-07 12:59 | 10.16994 | 13.17281 | 36890 ft | 502 kts | 171° |
| 2026-05-07 12:59 | 10.10109 | 13.18470 | 36890 ft | 502 kts | 171° |
| 2026-05-07 13:00 | 10.03222 | 13.19654 | 36891 ft | 502 kts | 171° |
| 2026-05-07 13:00 | 9.96292 | 13.20508 | 36880 ft | 501 kts | 176° |
| 2026-05-07 13:01 | 9.89344 | 13.21008 | 36878 ft | 500 kts | 176° |
| 2026-05-07 13:01 | 9.82411 | 13.21538 | 36869 ft | 499 kts | 176° |
| 2026-05-07 13:02 | 9.75481 | 13.22136 | 36870 ft | 500 kts | 175° |
| 2026-05-07 13:02 | 9.68548 | 13.22764 | 36865 ft | 500 kts | 175° |
| 2026-05-07 13:03 | 9.62790 | 13.23286 | 36860 ft | 500 kts | 175° |
| 2026-05-07 13:03 | 9.54692 | 13.24019 | 36861 ft | 500 kts | 175° |
| 2026-05-07 13:04 | 9.48935 | 13.24551 | 36860 ft | 500 kts | 175° |
| 2026-05-07 13:04 | 9.42002 | 13.25192 | 36860 ft | 500 kts | 175° |
| 2026-05-07 13:05 | 9.35073 | 13.25830 | 36861 ft | 500 kts | 175° |
| 2026-05-07 13:05 | 9.28156 | 13.26490 | 36859 ft | 499 kts | 174° |
| 2026-05-07 13:06 | 9.21243 | 13.27225 | 36860 ft | 499 kts | 174° |
| 2026-05-07 13:06 | 9.14331 | 13.27964 | 36859 ft | 499 kts | 174° |
| 2026-05-07 13:07 | 9.07433 | 13.28691 | 36861 ft | 498 kts | 174° |
| 2026-05-07 13:07 | 9.00532 | 13.29413 | 36860 ft | 498 kts | 174° |
| 2026-05-07 13:08 | 8.93639 | 13.30133 | 36870 ft | 498 kts | 174° |
| 2026-05-07 13:08 | 8.86745 | 13.30852 | 36873 ft | 497 kts | 174° |
| 2026-05-07 13:09 | 8.79862 | 13.31571 | 36882 ft | 498 kts | 174° |
| 2026-05-07 13:09 | 8.73019 | 13.32286 | 36889 ft | 497 kts | 174° |
| 2026-05-07 13:10 | 8.66087 | 13.33009 | 36900 ft | 498 kts | 174° |
| 2026-05-07 13:10 | 8.59206 | 13.33727 | 36919 ft | 497 kts | 174° |
| 2026-05-07 13:11 | 8.52333 | 13.34444 | 36929 ft | 496 kts | 174° |
| 2026-05-07 13:11 | 8.45513 | 13.35155 | 36941 ft | 496 kts | 174° |
| 2026-05-07 13:12 | 8.38603 | 13.35873 | 36952 ft | 496 kts | 174° |
| 2026-05-07 13:12 | 8.31787 | 13.36580 | 36971 ft | 495 kts | 174° |
| 2026-05-07 13:13 | 8.24886 | 13.37298 | 36986 ft | 495 kts | 174° |
| 2026-05-07 13:13 | 8.18072 | 13.38007 | 36997 ft | 495 kts | 174° |
| 2026-05-07 13:14 | 8.11217 | 13.38723 | 37008 ft | 495 kts | 174° |
| 2026-05-07 13:14 | 8.04366 | 13.39435 | 37027 ft | 494 kts | 174° |
| 2026-05-07 13:15 | 7.97525 | 13.40145 | 37044 ft | 494 kts | 174° |
| 2026-05-07 13:15 | 7.90682 | 13.40854 | 37054 ft | 494 kts | 174° |
| 2026-05-07 13:16 | 7.83850 | 13.41563 | 37064 ft | 494 kts | 174° |
| 2026-05-07 13:16 | 7.77020 | 13.42274 | 37073 ft | 494 kts | 174° |
| 2026-05-07 13:17 | 7.70188 | 13.42984 | 37083 ft | 494 kts | 174° |
| 2026-05-07 13:17 | 7.63353 | 13.43693 | 37093 ft | 494 kts | 174° |
| 2026-05-07 13:18 | 7.56528 | 13.44401 | 37086 ft | 493 kts | 174° |
| 2026-05-07 13:18 | 7.49700 | 13.45108 | 37094 ft | 493 kts | 174° |
| 2026-05-07 13:19 | 7.42869 | 13.45817 | 37100 ft | 493 kts | 174° |
| 2026-05-07 13:19 | 7.36050 | 13.46522 | 37103 ft | 492 kts | 174° |
| 2026-05-07 13:20 | 7.29227 | 13.47229 | 37099 ft | 492 kts | 174° |
| 2026-05-07 13:20 | 7.22417 | 13.47936 | 37107 ft | 492 kts | 174° |
| 2026-05-07 13:21 | 7.15622 | 13.48777 | 37095 ft | 492 kts | 171° |
| 2026-05-07 13:21 | 7.08859 | 13.49855 | 37103 ft | 492 kts | 171° |
| 2026-05-07 13:22 | 7.02098 | 13.50930 | 37106 ft | 492 kts | 171° |
| 2026-05-07 13:22 | 6.95367 | 13.51960 | 37087 ft | 492 kts | 171° |
| 2026-05-07 13:23 | 6.88556 | 13.52983 | 37088 ft | 491 kts | 171° |
| 2026-05-07 13:23 | 6.81845 | 13.53988 | 37095 ft | 491 kts | 171° |
| 2026-05-07 13:24 | 6.75087 | 13.54999 | 37083 ft | 491 kts | 171° |
| 2026-05-07 13:24 | 6.68329 | 13.56014 | 37082 ft | 491 kts | 171° |
| 2026-05-07 13:25 | 6.61580 | 13.57029 | 37083 ft | 490 kts | 171° |
| 2026-05-07 13:25 | 6.54834 | 13.58043 | 37090 ft | 490 kts | 171° |
| 2026-05-07 13:26 | 6.48092 | 13.59053 | 37082 ft | 490 kts | 171° |
| 2026-05-07 13:26 | 6.41353 | 13.60063 | 37083 ft | 490 kts | 171° |
| 2026-05-07 13:27 | 6.34606 | 13.61077 | 37081 ft | 490 kts | 171° |
| 2026-05-07 13:27 | 6.27859 | 13.62085 | 37075 ft | 490 kts | 171° |
| 2026-05-07 13:28 | 6.21124 | 13.63092 | 37073 ft | 490 kts | 171° |
| 2026-05-07 13:28 | 6.14382 | 13.64103 | 37074 ft | 490 kts | 171° |
| 2026-05-07 13:29 | 6.07646 | 13.65113 | 37071 ft | 490 kts | 171° |
| 2026-05-07 13:29 | 6.00901 | 13.66121 | 37064 ft | 490 kts | 171° |
| 2026-05-07 13:30 | 5.94162 | 13.67125 | 37066 ft | 489 kts | 171° |
| 2026-05-07 13:30 | 5.87436 | 13.68129 | 37063 ft | 489 kts | 171° |
| 2026-05-07 13:31 | 5.80710 | 13.69133 | 37056 ft | 489 kts | 171° |
| 2026-05-07 13:31 | 5.73979 | 13.70138 | 37052 ft | 489 kts | 171° |
| 2026-05-07 13:32 | 5.67253 | 13.71143 | 37056 ft | 489 kts | 171° |
| 2026-05-07 13:32 | 5.60528 | 13.72146 | 37051 ft | 489 kts | 171° |
| 2026-05-07 13:33 | 5.53813 | 13.73147 | 37042 ft | 489 kts | 171° |
| 2026-05-07 13:33 | 5.47131 | 13.74143 | 37045 ft | 488 kts | 171° |
| 2026-05-07 13:34 | 5.36995 | 13.75656 | 37047 ft | 489 kts | 171° |
| 2026-05-07 13:35 | 5.30314 | 13.76653 | 37038 ft | 489 kts | 171° |
| 2026-05-07 13:35 | 5.23594 | 13.77653 | 37038 ft | 488 kts | 171° |
| 2026-05-07 13:36 | 5.16875 | 13.78653 | 37042 ft | 488 kts | 171° |
| 2026-05-07 13:36 | 5.10157 | 13.79657 | 37033 ft | 488 kts | 171° |
| 2026-05-07 13:37 | 5.03440 | 13.80658 | 37033 ft | 488 kts | 171° |
| 2026-05-07 13:37 | 4.96726 | 13.81654 | 37039 ft | 488 kts | 171° |
| 2026-05-07 13:38 | 4.90009 | 13.82653 | 37029 ft | 488 kts | 171° |
| 2026-05-07 13:38 | 4.83302 | 13.83653 | 37026 ft | 487 kts | 171° |
| 2026-05-07 13:39 | 4.76604 | 13.84650 | 37026 ft | 487 kts | 171° |
| 2026-05-07 13:39 | 4.69908 | 13.85646 | 37026 ft | 487 kts | 171° |
| 2026-05-07 13:40 | 4.63197 | 13.86645 | 37027 ft | 487 kts | 171° |
| 2026-05-07 13:40 | 4.56490 | 13.87646 | 37026 ft | 487 kts | 170° |
| 2026-05-07 13:41 | 4.49790 | 13.88642 | 37026 ft | 487 kts | 171° |
| 2026-05-07 13:41 | 4.43084 | 13.89638 | 37027 ft | 487 kts | 170° |
| 2026-05-07 13:42 | 4.36383 | 13.90633 | 37017 ft | 486 kts | 170° |
| 2026-05-07 13:42 | 4.29684 | 13.91628 | 37018 ft | 487 kts | 170° |
| 2026-05-07 13:43 | 4.22988 | 13.92623 | 37018 ft | 486 kts | 170° |
| 2026-05-07 13:43 | 4.16292 | 13.93618 | 37017 ft | 487 kts | 170° |
| 2026-05-07 13:44 | 4.09594 | 13.94613 | 37018 ft | 487 kts | 170° |
| 2026-05-07 13:44 | 4.02895 | 13.95610 | 37017 ft | 487 kts | 170° |
| 2026-05-07 13:45 | 3.96198 | 13.96606 | 37017 ft | 486 kts | 170° |
| 2026-05-07 13:45 | 3.89557 | 13.97589 | 37157 ft | 486 kts | 170° |
| 2026-05-07 13:45 | 3.86208 | 13.98084 | 37314 ft | 486 kts | 170° |
| 2026-05-07 13:46 | 3.82860 | 13.98579 | 37461 ft | 486 kts | 171° |
| 2026-05-07 13:46 | 3.79518 | 13.99074 | 37597 ft | 486 kts | 171° |
| 2026-05-07 13:46 | 3.76171 | 13.99571 | 37747 ft | 486 kts | 171° |
| 2026-05-07 13:46 | 3.72820 | 14.00067 | 37882 ft | 486 kts | 171° |
| 2026-05-07 13:47 | 3.69479 | 14.00562 | 38005 ft | 486 kts | 171° |
| 2026-05-07 13:47 | 3.66129 | 14.01058 | 38147 ft | 486 kts | 171° |
| 2026-05-07 13:47 | 3.62779 | 14.01553 | 38268 ft | 486 kts | 171° |
| 2026-05-07 13:47 | 3.59431 | 14.02049 | 38370 ft | 487 kts | 171° |
| 2026-05-07 13:48 | 3.56079 | 14.02546 | 38471 ft | 487 kts | 171° |
| 2026-05-07 13:48 | 3.52725 | 14.03044 | 38590 ft | 487 kts | 171° |
| 2026-05-07 13:48 | 3.49375 | 14.03542 | 38709 ft | 487 kts | 171° |
| 2026-05-07 13:48 | 3.46015 | 14.04041 | 38826 ft | 487 kts | 171° |
| 2026-05-07 13:49 | 3.42665 | 14.04536 | 38943 ft | 487 kts | 171° |
| 2026-05-07 13:49 | 3.35936 | 14.05529 | 39023 ft | 490 kts | 171° |
| 2026-05-07 13:50 | 3.29197 | 14.06526 | 39017 ft | 489 kts | 171° |
| 2026-05-07 13:50 | 3.22482 | 14.07519 | 39008 ft | 488 kts | 171° |
| 2026-05-07 13:51 | 3.16897 | 14.08345 | 39028 ft | 488 kts | 171° |
| 2026-05-07 13:51 | 3.10188 | 14.09342 | 39013 ft | 488 kts | 171° |
| 2026-05-07 13:52 | 3.03478 | 14.10336 | 39006 ft | 487 kts | 171° |
| 2026-05-07 13:52 | 2.96772 | 14.11328 | 39015 ft | 487 kts | 171° |
| 2026-05-07 13:53 | 2.90061 | 14.12322 | 39005 ft | 488 kts | 170° |
| 2026-05-07 13:53 | 2.83351 | 14.13315 | 39003 ft | 488 kts | 170° |
| 2026-05-07 13:54 | 2.76623 | 14.14313 | 39007 ft | 488 kts | 170° |
| 2026-05-07 13:54 | 2.69894 | 14.15306 | 39017 ft | 489 kts | 170° |
| 2026-05-07 13:55 | 2.63170 | 14.16302 | 39018 ft | 489 kts | 170° |
| 2026-05-07 13:55 | 2.56444 | 14.17299 | 39001 ft | 489 kts | 170° |
| 2026-05-07 13:56 | 2.49716 | 14.18297 | 39005 ft | 489 kts | 170° |
| 2026-05-07 13:56 | 2.42977 | 14.19294 | 39018 ft | 490 kts | 170° |
| 2026-05-07 13:57 | 2.36238 | 14.20288 | 39007 ft | 489 kts | 170° |
| 2026-05-07 13:57 | 2.29494 | 14.21288 | 39003 ft | 490 kts | 170° |
| 2026-05-07 13:58 | 2.22750 | 14.22287 | 39012 ft | 490 kts | 170° |
| 2026-05-07 13:58 | 2.15993 | 14.23284 | 39015 ft | 490 kts | 170° |
| 2026-05-07 13:59 | 2.09242 | 14.24280 | 39002 ft | 490 kts | 170° |
| 2026-05-07 13:59 | 2.02494 | 14.25278 | 38999 ft | 490 kts | 170° |
| 2026-05-07 14:00 | 1.95788 | 14.26269 | 39005 ft | 490 kts | 170° |
| 2026-05-07 14:00 | 1.89044 | 14.27267 | 39006 ft | 490 kts | 170° |
| 2026-05-07 14:01 | 1.82292 | 14.28266 | 39018 ft | 490 kts | 170° |
| 2026-05-07 14:01 | 1.75548 | 14.29260 | 39015 ft | 490 kts | 170° |
| 2026-05-07 14:02 | 1.68805 | 14.30256 | 38997 ft | 489 kts | 170° |
| 2026-05-07 14:02 | 1.62071 | 14.31253 | 38988 ft | 489 kts | 170° |
| 2026-05-07 14:03 | 1.55350 | 14.32245 | 38981 ft | 488 kts | 170° |
| 2026-05-07 14:03 | 1.48634 | 14.33237 | 38981 ft | 487 kts | 170° |
| 2026-05-07 14:04 | 1.41924 | 14.34227 | 38982 ft | 487 kts | 170° |
| 2026-05-07 14:04 | 1.35220 | 14.35216 | 38970 ft | 486 kts | 170° |
| 2026-05-07 14:05 | 1.28538 | 14.36205 | 38972 ft | 485 kts | 170° |
| 2026-05-07 14:05 | 1.21860 | 14.37191 | 38970 ft | 484 kts | 170° |
| 2026-05-07 14:06 | 1.15199 | 14.38175 | 38972 ft | 483 kts | 170° |
| 2026-05-07 14:06 | 1.08594 | 14.39151 | 38971 ft | 483 kts | 170° |
| 2026-05-07 14:07 | 1.01957 | 14.40130 | 38962 ft | 482 kts | 170° |
| 2026-05-07 14:07 | 0.95331 | 14.41108 | 38961 ft | 481 kts | 170° |
| 2026-05-07 14:08 | 0.88710 | 14.42085 | 38962 ft | 481 kts | 170° |
| 2026-05-07 14:08 | 0.82102 | 14.43060 | 38962 ft | 480 kts | 170° |
| 2026-05-07 14:09 | 0.75496 | 14.44037 | 38956 ft | 479 kts | 170° |
| 2026-05-07 14:09 | 0.68902 | 14.45011 | 38933 ft | 479 kts | 170° |
| 2026-05-07 14:10 | 0.62309 | 14.45984 | 38921 ft | 479 kts | 170° |
| 2026-05-07 14:10 | 0.55727 | 14.46958 | 38921 ft | 478 kts | 170° |
| 2026-05-07 14:11 | 0.49141 | 14.47931 | 38931 ft | 478 kts | 170° |
| 2026-05-07 14:11 | 0.42561 | 14.48900 | 38917 ft | 478 kts | 170° |
| 2026-05-07 14:12 | 0.35984 | 14.49868 | 38914 ft | 478 kts | 170° |
| 2026-05-07 14:12 | 0.29410 | 14.50839 | 38917 ft | 477 kts | 170° |
| 2026-05-07 14:13 | 0.22833 | 14.51811 | 38914 ft | 477 kts | 170° |
| 2026-05-07 14:13 | 0.16265 | 14.52779 | 38917 ft | 477 kts | 170° |
| 2026-05-07 14:14 | 0.09737 | 14.53740 | 38918 ft | 477 kts | 170° |
| 2026-05-07 14:14 | 0.03118 | 14.54720 | 38912 ft | 477 kts | 170° |
| 2026-05-07 14:15 | -0.03436 | 14.55693 | 38914 ft | 476 kts | 170° |
| 2026-05-07 14:15 | -0.09938 | 14.56650 | 38914 ft | 475 kts | 170° |
| 2026-05-07 14:16 | -0.16482 | 14.57612 | 38913 ft | 475 kts | 170° |
| 2026-05-07 14:16 | -0.23019 | 14.58572 | 38918 ft | 475 kts | 170° |
| 2026-05-07 14:17 | -0.29558 | 14.59537 | 38914 ft | 475 kts | 170° |
| 2026-05-07 14:17 | -0.36084 | 14.60502 | 38916 ft | 474 kts | 170° |
| 2026-05-07 14:18 | -0.42605 | 14.61466 | 38917 ft | 474 kts | 170° |
| 2026-05-07 14:18 | -0.49125 | 14.62428 | 38910 ft | 473 kts | 170° |
| 2026-05-07 14:19 | -0.55640 | 14.63389 | 38910 ft | 473 kts | 170° |
| 2026-05-07 14:19 | -0.62148 | 14.64349 | 38895 ft | 473 kts | 170° |
| 2026-05-07 14:20 | -0.68659 | 14.65309 | 38898 ft | 473 kts | 170° |
| 2026-05-07 14:20 | -0.75161 | 14.66269 | 38898 ft | 472 kts | 170° |
| 2026-05-07 14:21 | -0.81656 | 14.67230 | 38896 ft | 472 kts | 170° |
| 2026-05-07 14:21 | -0.88151 | 14.68188 | 38898 ft | 471 kts | 170° |
| 2026-05-07 14:22 | -0.94633 | 14.69143 | 38895 ft | 471 kts | 170° |
| 2026-05-07 14:22 | -1.01119 | 14.70099 | 38899 ft | 471 kts | 170° |
| 2026-05-07 14:23 | -1.07600 | 14.71056 | 38898 ft | 471 kts | 170° |
| 2026-05-07 14:23 | -1.14084 | 14.72013 | 38899 ft | 471 kts | 170° |
| 2026-05-07 14:24 | -1.20557 | 14.72969 | 38898 ft | 470 kts | 170° |
| 2026-05-07 14:24 | -1.27031 | 14.73923 | 38898 ft | 470 kts | 170° |
| 2026-05-07 14:25 | -1.33495 | 14.74876 | 38897 ft | 470 kts | 170° |
| 2026-05-07 14:25 | -1.39958 | 14.75829 | 38897 ft | 469 kts | 170° |
| 2026-05-07 14:26 | -1.46421 | 14.76784 | 38896 ft | 469 kts | 170° |
| 2026-05-07 14:26 | -1.52878 | 14.77738 | 38898 ft | 469 kts | 170° |
| 2026-05-07 14:27 | -1.59339 | 14.78695 | 38898 ft | 469 kts | 170° |
| 2026-05-07 14:27 | -1.65801 | 14.79646 | 38897 ft | 469 kts | 170° |
| 2026-05-07 14:28 | -1.72260 | 14.80598 | 38898 ft | 469 kts | 170° |
| 2026-05-07 14:28 | -1.78669 | 14.81544 | 38898 ft | 469 kts | 170° |
| 2026-05-07 14:29 | -1.85126 | 14.82499 | 38895 ft | 468 kts | 170° |
| 2026-05-07 14:29 | -1.91570 | 14.83430 | 38898 ft | 469 kts | 171° |
| 2026-05-07 14:30 | -1.98033 | 14.84343 | 38898 ft | 469 kts | 171° |
| 2026-05-07 14:30 | -2.04491 | 14.85257 | 38889 ft | 469 kts | 171° |
| 2026-05-07 14:31 | -2.10947 | 14.86177 | 38887 ft | 469 kts | 171° |
| 2026-05-07 14:31 | -2.17403 | 14.87099 | 38887 ft | 469 kts | 171° |
| 2026-05-07 14:32 | -2.23867 | 14.88023 | 38889 ft | 469 kts | 171° |
| 2026-05-07 14:32 | -2.30329 | 14.88945 | 38889 ft | 469 kts | 171° |
| 2026-05-07 14:33 | -2.36799 | 14.89868 | 38888 ft | 469 kts | 171° |
| 2026-05-07 14:33 | -2.43261 | 14.90791 | 38887 ft | 469 kts | 171° |
| 2026-05-07 14:34 | -2.49722 | 14.91715 | 38887 ft | 469 kts | 171° |
| 2026-05-07 14:34 | -2.56189 | 14.92639 | 38887 ft | 469 kts | 171° |
| 2026-05-07 14:35 | -2.62660 | 14.93562 | 38888 ft | 469 kts | 171° |
| 2026-05-07 14:35 | -2.69122 | 14.94485 | 38886 ft | 470 kts | 171° |
| 2026-05-07 14:36 | -2.75598 | 14.95411 | 38888 ft | 470 kts | 171° |
| 2026-05-07 14:36 | -2.82067 | 14.96332 | 38887 ft | 470 kts | 171° |
| 2026-05-07 14:37 | -2.88540 | 14.97257 | 38888 ft | 470 kts | 171° |
| 2026-05-07 14:37 | -2.98220 | 14.98644 | 38888 ft | 471 kts | 171° |
| 2026-05-07 14:38 | -3.04704 | 14.99570 | 38887 ft | 471 kts | 171° |
| 2026-05-07 14:38 | -3.11188 | 15.00496 | 38888 ft | 471 kts | 171° |
| 2026-05-07 14:39 | -3.16620 | 15.01273 | 38888 ft | 471 kts | 171° |
| 2026-05-07 14:39 | -3.23114 | 15.02201 | 38888 ft | 471 kts | 171° |
| 2026-05-07 14:40 | -3.29606 | 15.03130 | 38887 ft | 471 kts | 171° |
| 2026-05-07 14:40 | -3.36095 | 15.04056 | 38887 ft | 471 kts | 171° |
| 2026-05-07 14:41 | -3.42597 | 15.04988 | 38888 ft | 472 kts | 171° |
| 2026-05-07 14:41 | -3.49062 | 15.05915 | 38888 ft | 473 kts | 171° |
| 2026-05-07 14:42 | -3.55569 | 15.06845 | 38889 ft | 473 kts | 171° |
| 2026-05-07 14:42 | -3.62082 | 15.07776 | 38887 ft | 473 kts | 171° |
| 2026-05-07 14:43 | -3.68588 | 15.08710 | 38887 ft | 472 kts | 171° |
| 2026-05-07 14:43 | -3.75099 | 15.09641 | 38887 ft | 473 kts | 171° |
| 2026-05-07 14:44 | -3.81618 | 15.10573 | 38888 ft | 473 kts | 171° |
| 2026-05-07 14:44 | -3.88128 | 15.11504 | 38889 ft | 473 kts | 171° |
| 2026-05-07 14:45 | -3.94645 | 15.12438 | 38887 ft | 473 kts | 171° |
| 2026-05-07 14:45 | -4.01166 | 15.13373 | 38888 ft | 473 kts | 171° |
| 2026-05-07 14:46 | -4.07682 | 15.14306 | 38890 ft | 474 kts | 171° |
| 2026-05-07 14:46 | -4.14214 | 15.15243 | 38887 ft | 474 kts | 171° |
| 2026-05-07 14:47 | -4.20745 | 15.16179 | 38889 ft | 474 kts | 171° |
| 2026-05-07 14:47 | -4.27079 | 15.17848 | 38888 ft | 471 kts | 155° |
| 2026-05-07 14:48 | -4.32530 | 15.21408 | 38887 ft | 467 kts | 135° |
| 2026-05-07 14:48 | -4.36972 | 15.26147 | 38887 ft | 467 kts | 130° |
| 2026-05-07 14:49 | -4.41462 | 15.30857 | 38888 ft | 469 kts | 140° |
| 2026-05-07 14:49 | -4.47071 | 15.34153 | 38887 ft | 471 kts | 159° |
| 2026-05-07 14:50 | -4.50226 | 15.35017 | 38888 ft | 472 kts | 170° |
| 2026-05-07 14:50 | -4.53483 | 15.35500 | 38887 ft | 473 kts | 172° |
| 2026-05-07 14:50 | -4.60001 | 15.36179 | 38887 ft | 474 kts | 174° |
| 2026-05-07 14:51 | -4.66575 | 15.36784 | 38887 ft | 475 kts | 174° |
| 2026-05-07 14:51 | -4.73154 | 15.37424 | 38888 ft | 475 kts | 173° |
| 2026-05-07 14:52 | -4.79727 | 15.38089 | 38888 ft | 474 kts | 173° |
| 2026-05-07 14:52 | -4.86288 | 15.38764 | 38887 ft | 474 kts | 173° |
| 2026-05-07 14:53 | -4.92853 | 15.39440 | 38887 ft | 474 kts | 173° |
| 2026-05-07 14:53 | -4.99418 | 15.40117 | 38888 ft | 474 kts | 173° |
| 2026-05-07 14:54 | -5.05987 | 15.40792 | 38887 ft | 475 kts | 173° |
| 2026-05-07 14:54 | -5.12560 | 15.41465 | 38888 ft | 474 kts | 174° |
| 2026-05-07 14:55 | -5.19124 | 15.42136 | 38887 ft | 474 kts | 173° |
| 2026-05-07 14:55 | -5.25686 | 15.42811 | 38887 ft | 474 kts | 173° |
| 2026-05-07 14:56 | -5.32250 | 15.43485 | 38887 ft | 474 kts | 174° |
| 2026-05-07 14:56 | -5.38818 | 15.44157 | 38889 ft | 474 kts | 174° |
| 2026-05-07 14:57 | -5.45390 | 15.44833 | 38887 ft | 474 kts | 174° |
| 2026-05-07 14:57 | -5.51953 | 15.45508 | 38887 ft | 475 kts | 174° |
| 2026-05-07 14:58 | -5.58526 | 15.46183 | 38887 ft | 475 kts | 174° |
| 2026-05-07 14:58 | -5.65092 | 15.46858 | 38887 ft | 474 kts | 174° |
| 2026-05-07 14:59 | -5.71649 | 15.47533 | 38888 ft | 474 kts | 174° |
| 2026-05-07 14:59 | -5.78214 | 15.48208 | 38888 ft | 474 kts | 174° |
| 2026-05-07 15:00 | -5.84770 | 15.48882 | 38888 ft | 474 kts | 174° |
| 2026-05-07 15:00 | -5.91337 | 15.49573 | 38887 ft | 474 kts | 173° |
| 2026-05-07 15:01 | -5.97890 | 15.50285 | 38888 ft | 474 kts | 173° |
| 2026-05-07 15:01 | -6.04406 | 15.50992 | 38887 ft | 473 kts | 174° |
| 2026-05-07 15:02 | -6.10949 | 15.51691 | 38887 ft | 473 kts | 174° |
| 2026-05-07 15:02 | -6.17493 | 15.52393 | 38888 ft | 473 kts | 174° |
| 2026-05-07 15:03 | -6.24039 | 15.53098 | 38888 ft | 473 kts | 174° |
| 2026-05-07 15:03 | -6.30586 | 15.53799 | 38887 ft | 473 kts | 174° |
| 2026-05-07 15:04 | -6.37134 | 15.54503 | 38888 ft | 473 kts | 174° |
| 2026-05-07 15:04 | -6.43678 | 15.55207 | 38889 ft | 473 kts | 174° |
| 2026-05-07 15:05 | -6.50233 | 15.55911 | 38889 ft | 474 kts | 174° |
| 2026-05-07 15:05 | -6.56791 | 15.56616 | 38887 ft | 474 kts | 174° |
| 2026-05-07 15:06 | -6.63351 | 15.57320 | 38887 ft | 474 kts | 174° |
| 2026-05-07 15:06 | -6.69911 | 15.58025 | 38887 ft | 474 kts | 174° |
| 2026-05-07 15:07 | -6.76470 | 15.58730 | 38888 ft | 474 kts | 174° |
| 2026-05-07 15:07 | -6.83026 | 15.59439 | 38887 ft | 474 kts | 174° |
| 2026-05-07 15:08 | -6.89594 | 15.60147 | 38889 ft | 475 kts | 174° |
| 2026-05-07 15:08 | -6.96158 | 15.60852 | 38887 ft | 474 kts | 174° |
| 2026-05-07 15:09 | -7.02677 | 15.61552 | 38887 ft | 474 kts | 174° |
| 2026-05-07 15:09 | -7.09239 | 15.62258 | 38888 ft | 474 kts | 174° |
| 2026-05-07 15:10 | -7.15815 | 15.62966 | 38888 ft | 476 kts | 174° |
| 2026-05-07 15:10 | -7.22421 | 15.63680 | 38888 ft | 478 kts | 174° |
| 2026-05-07 15:11 | -7.29035 | 15.64393 | 38889 ft | 478 kts | 174° |
| 2026-05-07 15:11 | -7.35646 | 15.65105 | 38887 ft | 478 kts | 174° |
| 2026-05-07 15:12 | -7.42258 | 15.65819 | 38887 ft | 478 kts | 174° |
| 2026-05-07 15:12 | -7.48869 | 15.66530 | 38888 ft | 478 kts | 174° |
| 2026-05-07 15:13 | -7.55489 | 15.67247 | 38897 ft | 479 kts | 174° |
| 2026-05-07 15:13 | -7.62117 | 15.67969 | 38893 ft | 478 kts | 174° |
| 2026-05-07 15:14 | -7.68742 | 15.68696 | 38897 ft | 478 kts | 174° |
| 2026-05-07 15:14 | -7.75357 | 15.69419 | 38892 ft | 477 kts | 174° |
| 2026-05-07 15:15 | -7.81967 | 15.70127 | 38897 ft | 478 kts | 174° |
| 2026-05-07 15:15 | -7.88597 | 15.70825 | 38896 ft | 479 kts | 174° |
| 2026-05-07 15:16 | -7.95219 | 15.71537 | 38895 ft | 478 kts | 174° |
| 2026-05-07 15:16 | -8.01797 | 15.72248 | 38898 ft | 478 kts | 174° |
| 2026-05-07 15:17 | -8.08464 | 15.72964 | 38896 ft | 478 kts | 174° |
| 2026-05-07 15:17 | -8.15007 | 15.73681 | 38898 ft | 477 kts | 174° |
| 2026-05-07 15:18 | -8.21615 | 15.74402 | 38900 ft | 477 kts | 173° |
| 2026-05-07 15:18 | -8.28226 | 15.75113 | 38899 ft | 479 kts | 174° |
| 2026-05-07 15:19 | -8.34859 | 15.75831 | 38880 ft | 479 kts | 174° |
| 2026-05-07 15:19 | -8.41489 | 15.76559 | 38831 ft | 479 kts | 174° |
| 2026-05-07 15:20 | -8.48120 | 15.77278 | 38818 ft | 480 kts | 174° |
| 2026-05-07 15:20 | -8.54763 | 15.77994 | 38815 ft | 480 kts | 174° |
| 2026-05-07 15:21 | -8.61401 | 15.78714 | 38814 ft | 480 kts | 174° |
| 2026-05-07 15:21 | -8.68033 | 15.79434 | 38813 ft | 480 kts | 174° |
| 2026-05-07 15:22 | -8.74680 | 15.80153 | 38812 ft | 480 kts | 174° |
| 2026-05-07 15:22 | -8.81316 | 15.80865 | 38812 ft | 479 kts | 174° |
| 2026-05-07 15:23 | -8.87947 | 15.81586 | 38820 ft | 480 kts | 174° |
| 2026-05-07 15:23 | -8.94604 | 15.82314 | 38886 ft | 481 kts | 174° |
| 2026-05-07 15:24 | -9.01260 | 15.83041 | 38887 ft | 481 kts | 174° |
| 2026-05-07 15:24 | -9.07876 | 15.83761 | 38891 ft | 481 kts | 174° |
| 2026-05-07 15:25 | -9.14544 | 15.84488 | 38970 ft | 482 kts | 174° |
| 2026-05-07 15:25 | -9.17883 | 15.84851 | 39087 ft | 483 kts | 174° |
| 2026-05-07 15:25 | -9.21213 | 15.85214 | 39207 ft | 482 kts | 174° |
| 2026-05-07 15:26 | -9.24555 | 15.85576 | 39309 ft | 482 kts | 174° |
| 2026-05-07 15:26 | -9.27887 | 15.85937 | 39427 ft | 482 kts | 174° |
| 2026-05-07 15:26 | -9.31224 | 15.86301 | 39535 ft | 482 kts | 174° |
| 2026-05-07 15:26 | -9.34562 | 15.86666 | 39680 ft | 481 kts | 174° |
| 2026-05-07 15:27 | -9.37888 | 15.87030 | 39855 ft | 480 kts | 175° |
| 2026-05-07 15:27 | -9.41207 | 15.87392 | 39914 ft | 481 kts | 175° |
| 2026-05-07 15:27 | -9.47873 | 15.88119 | 39921 ft | 481 kts | 175° |
| 2026-05-07 15:28 | -9.53431 | 15.88728 | 39926 ft | 480 kts | 175° |
| 2026-05-07 15:28 | -9.60066 | 15.89451 | 39934 ft | 479 kts | 175° |
| 2026-05-07 15:29 | -9.66701 | 15.90176 | 39936 ft | 480 kts | 175° |
| 2026-05-07 15:29 | -9.73342 | 15.90900 | 39944 ft | 480 kts | 175° |
| 2026-05-07 15:30 | -9.79935 | 15.91622 | 39950 ft | 480 kts | 175° |
| 2026-05-07 15:30 | -9.86613 | 15.92354 | 39959 ft | 479 kts | 175° |
| 2026-05-07 15:31 | -9.93239 | 15.93079 | 39962 ft | 479 kts | 175° |
| 2026-05-07 15:31 | -9.99827 | 15.93800 | 39976 ft | 479 kts | 175° |
| 2026-05-07 15:32 | -10.06458 | 15.94526 | 39981 ft | 479 kts | 175° |
| 2026-05-07 15:32 | -10.13086 | 15.95263 | 39985 ft | 479 kts | 174° |
| 2026-05-07 15:33 | -10.19719 | 15.96054 | 39994 ft | 480 kts | 174° |
| 2026-05-07 15:33 | -10.26345 | 15.96853 | 39997 ft | 480 kts | 174° |
| 2026-05-07 15:34 | -10.32974 | 15.97647 | 40005 ft | 479 kts | 174° |
| 2026-05-07 15:34 | -10.39597 | 15.98436 | 40008 ft | 479 kts | 174° |
| 2026-05-07 15:35 | -10.46215 | 15.99224 | 40017 ft | 479 kts | 174° |
| 2026-05-07 15:35 | -10.52833 | 16.00012 | 40022 ft | 479 kts | 175° |
| 2026-05-07 15:36 | -10.59456 | 16.00801 | 40028 ft | 479 kts | 175° |
| 2026-05-07 15:36 | -10.66080 | 16.01592 | 40035 ft | 479 kts | 175° |
| 2026-05-07 15:37 | -10.72699 | 16.02381 | 40043 ft | 479 kts | 175° |
| 2026-05-07 15:37 | -10.79301 | 16.03169 | 40056 ft | 479 kts | 175° |
| 2026-05-07 15:38 | -10.85930 | 16.03961 | 40059 ft | 479 kts | 175° |
| 2026-05-07 15:38 | -10.92548 | 16.04751 | 40065 ft | 479 kts | 175° |
| 2026-05-07 15:39 | -10.99172 | 16.05488 | 40077 ft | 478 kts | 176° |
| 2026-05-07 15:39 | -11.05787 | 16.06159 | 40076 ft | 478 kts | 176° |
| 2026-05-07 15:40 | -11.12407 | 16.06836 | 40082 ft | 478 kts | 176° |
| 2026-05-07 15:40 | -11.19032 | 16.07527 | 40083 ft | 479 kts | 176° |
| 2026-05-07 15:41 | -11.25663 | 16.08224 | 40091 ft | 478 kts | 176° |
| 2026-05-07 15:41 | -11.32286 | 16.08922 | 40093 ft | 478 kts | 176° |
| 2026-05-07 15:42 | -11.38904 | 16.09618 | 40100 ft | 478 kts | 176° |
| 2026-05-07 15:42 | -11.45533 | 16.10316 | 40108 ft | 478 kts | 176° |
| 2026-05-07 15:43 | -11.52157 | 16.11013 | 40110 ft | 479 kts | 177° |
| 2026-05-07 15:43 | -11.58783 | 16.11711 | 40115 ft | 479 kts | 177° |
| 2026-05-07 15:44 | -11.65405 | 16.12408 | 40118 ft | 479 kts | 177° |
| 2026-05-07 15:44 | -11.72041 | 16.13108 | 40121 ft | 479 kts | 177° |
| 2026-05-07 15:45 | -11.78664 | 16.13808 | 40127 ft | 479 kts | 177° |
| 2026-05-07 15:45 | -11.85292 | 16.14507 | 40129 ft | 479 kts | 177° |
| 2026-05-07 15:46 | -11.95236 | 16.15556 | 40137 ft | 479 kts | 177° |
| 2026-05-07 15:47 | -12.01871 | 16.16258 | 40138 ft | 479 kts | 177° |
| 2026-05-07 15:47 | -12.08495 | 16.16958 | 40137 ft | 479 kts | 177° |
| 2026-05-07 15:48 | -12.15119 | 16.17659 | 40145 ft | 479 kts | 177° |
| 2026-05-07 15:48 | -12.21744 | 16.18360 | 40147 ft | 479 kts | 177° |
| 2026-05-07 15:49 | -12.28326 | 16.19063 | 40147 ft | 479 kts | 177° |
| 2026-05-07 15:49 | -12.34949 | 16.19787 | 40146 ft | 478 kts | 177° |
| 2026-05-07 15:50 | -12.41569 | 16.20511 | 40147 ft | 478 kts | 177° |
| 2026-05-07 15:50 | -12.48184 | 16.21234 | 40146 ft | 478 kts | 177° |
| 2026-05-07 15:51 | -12.54801 | 16.21957 | 40146 ft | 477 kts | 177° |
| 2026-05-07 15:51 | -12.61401 | 16.22679 | 40147 ft | 477 kts | 178° |
| 2026-05-07 15:52 | -12.67999 | 16.23400 | 40147 ft | 477 kts | 178° |
| 2026-05-07 15:52 | -12.74595 | 16.24122 | 40146 ft | 476 kts | 178° |
| 2026-05-07 15:53 | -12.81185 | 16.24843 | 40146 ft | 476 kts | 178° |
| 2026-05-07 15:53 | -12.87767 | 16.25564 | 40154 ft | 476 kts | 178° |
| 2026-05-07 15:54 | -12.94349 | 16.26285 | 40155 ft | 475 kts | 178° |
| 2026-05-07 15:54 | -13.00911 | 16.27005 | 40156 ft | 474 kts | 179° |
| 2026-05-07 15:55 | -13.07470 | 16.27724 | 40155 ft | 474 kts | 179° |
| 2026-05-07 15:55 | -13.14026 | 16.28443 | 40155 ft | 473 kts | 179° |
| 2026-05-07 15:56 | -13.20523 | 16.29157 | 40156 ft | 473 kts | 179° |
| 2026-05-07 15:56 | -13.27063 | 16.29876 | 40155 ft | 472 kts | 179° |
| 2026-05-07 15:57 | -13.33590 | 16.30593 | 40155 ft | 471 kts | 179° |
| 2026-05-07 15:57 | -13.40111 | 16.31310 | 40156 ft | 471 kts | 179° |
| 2026-05-07 15:58 | -13.46621 | 16.32027 | 40155 ft | 470 kts | 180° |
| 2026-05-07 15:58 | -13.53133 | 16.32744 | 40166 ft | 470 kts | 180° |
| 2026-05-07 15:59 | -13.59631 | 16.33459 | 40165 ft | 469 kts | 180° |
| 2026-05-07 15:59 | -13.66122 | 16.34175 | 40165 ft | 469 kts | 180° |
| 2026-05-07 16:00 | -13.72621 | 16.34892 | 40166 ft | 469 kts | 180° |
| 2026-05-07 16:00 | -13.79113 | 16.35611 | 40165 ft | 469 kts | 180° |
| 2026-05-07 16:01 | -13.85605 | 16.36328 | 40164 ft | 469 kts | 180° |
| 2026-05-07 16:01 | -13.92084 | 16.37042 | 40166 ft | 469 kts | 180° |
| 2026-05-07 16:02 | -13.98567 | 16.37756 | 40165 ft | 469 kts | 180° |
| 2026-05-07 16:02 | -14.05053 | 16.38473 | 40165 ft | 468 kts | 180° |
| 2026-05-07 16:03 | -14.11536 | 16.39190 | 40165 ft | 468 kts | 180° |
| 2026-05-07 16:03 | -14.18017 | 16.39907 | 40166 ft | 468 kts | 180° |
| 2026-05-07 16:04 | -14.24497 | 16.40625 | 40156 ft | 469 kts | 180° |
| 2026-05-07 16:04 | -14.30981 | 16.41344 | 40136 ft | 468 kts | 180° |
| 2026-05-07 16:05 | -14.37469 | 16.42063 | 40137 ft | 469 kts | 180° |
| 2026-05-07 16:05 | -14.43968 | 16.42784 | 40133 ft | 469 kts | 180° |
| 2026-05-07 16:06 | -14.50455 | 16.43505 | 40130 ft | 469 kts | 180° |
| 2026-05-07 16:06 | -14.56954 | 16.44227 | 40127 ft | 469 kts | 180° |
| 2026-05-07 16:07 | -14.63453 | 16.44949 | 40127 ft | 469 kts | 180° |
| 2026-05-07 16:07 | -14.69951 | 16.45671 | 40119 ft | 470 kts | 180° |
| 2026-05-07 16:08 | -14.76456 | 16.46395 | 40119 ft | 470 kts | 180° |
| 2026-05-07 16:08 | -14.82963 | 16.47120 | 40120 ft | 470 kts | 181° |
| 2026-05-07 16:09 | -14.89430 | 16.47840 | 40118 ft | 471 kts | 181° |
| 2026-05-07 16:09 | -14.95950 | 16.48567 | 40111 ft | 471 kts | 181° |
| 2026-05-07 16:10 | -15.02469 | 16.49294 | 40109 ft | 471 kts | 181° |
| 2026-05-07 16:10 | -15.09000 | 16.50023 | 40110 ft | 472 kts | 181° |
| 2026-05-07 16:11 | -15.15531 | 16.50753 | 40110 ft | 472 kts | 181° |
| 2026-05-07 16:11 | -15.22065 | 16.51487 | 40100 ft | 472 kts | 181° |
| 2026-05-07 16:12 | -15.28589 | 16.52229 | 40100 ft | 472 kts | 181° |
| 2026-05-07 16:12 | -15.35124 | 16.52973 | 40100 ft | 473 kts | 181° |
| 2026-05-07 16:13 | -15.41666 | 16.53719 | 40101 ft | 473 kts | 181° |
| 2026-05-07 16:13 | -15.47098 | 16.54338 | 40092 ft | 473 kts | 181° |
| 2026-05-07 16:14 | -15.53635 | 16.55083 | 40091 ft | 473 kts | 181° |
| 2026-05-07 16:14 | -15.60185 | 16.55829 | 40092 ft | 474 kts | 181° |
| 2026-05-07 16:15 | -15.66739 | 16.56578 | 40091 ft | 474 kts | 181° |
| 2026-05-07 16:15 | -15.73294 | 16.57327 | 40087 ft | 474 kts | 181° |
| 2026-05-07 16:16 | -15.79850 | 16.58076 | 40081 ft | 474 kts | 181° |
| 2026-05-07 16:16 | -15.86396 | 16.58825 | 40083 ft | 474 kts | 181° |
| 2026-05-07 16:17 | -15.92950 | 16.59575 | 40090 ft | 474 kts | 181° |
| 2026-05-07 16:17 | -15.99505 | 16.60325 | 40091 ft | 474 kts | 181° |
| 2026-05-07 16:18 | -16.06061 | 16.61076 | 40083 ft | 474 kts | 181° |
| 2026-05-07 16:18 | -16.12615 | 16.61828 | 40081 ft | 474 kts | 181° |
| 2026-05-07 16:19 | -16.19170 | 16.62580 | 40083 ft | 474 kts | 181° |
| 2026-05-07 16:19 | -16.25721 | 16.63332 | 40077 ft | 474 kts | 181° |
| 2026-05-07 16:20 | -16.32277 | 16.64085 | 40060 ft | 474 kts | 181° |
| 2026-05-07 16:20 | -16.38827 | 16.64838 | 40069 ft | 474 kts | 181° |
| 2026-05-07 16:21 | -16.45384 | 16.65593 | 40060 ft | 474 kts | 181° |
| 2026-05-07 16:21 | -16.51936 | 16.66347 | 40076 ft | 474 kts | 181° |
| 2026-05-07 16:22 | -16.58494 | 16.67102 | 40077 ft | 474 kts | 181° |
| 2026-05-07 16:22 | -16.65049 | 16.67858 | 40073 ft | 474 kts | 181° |
| 2026-05-07 16:23 | -16.71601 | 16.68614 | 40075 ft | 474 kts | 181° |
| 2026-05-07 16:23 | -16.78151 | 16.69371 | 40076 ft | 473 kts | 181° |
| 2026-05-07 16:24 | -16.84658 | 16.70122 | 40076 ft | 474 kts | 181° |
| 2026-05-07 16:24 | -16.91214 | 16.70879 | 40076 ft | 474 kts | 181° |
| 2026-05-07 16:25 | -16.97769 | 16.71638 | 40071 ft | 474 kts | 181° |
| 2026-05-07 16:25 | -17.04319 | 16.72397 | 40060 ft | 474 kts | 182° |
| 2026-05-07 16:26 | -17.10876 | 16.73156 | 40042 ft | 474 kts | 182° |
| 2026-05-07 16:26 | -17.17433 | 16.73916 | 40027 ft | 474 kts | 182° |
| 2026-05-07 16:27 | -17.23981 | 16.75084 | 40029 ft | 486 kts | 170° |
| 2026-05-07 16:27 | -17.27146 | 16.76402 | 40022 ft | 496 kts | 159° |
| 2026-05-07 16:27 | -17.30125 | 16.78278 | 40031 ft | 503 kts | 153° |
| 2026-05-07 16:28 | -17.35898 | 16.82477 | 40025 ft | 503 kts | 155° |
| 2026-05-07 16:28 | -17.42141 | 16.85402 | 40031 ft | 484 kts | 173° |
| 2026-05-07 16:29 | -17.48676 | 16.86603 | 40028 ft | 473 kts | 182° |
| 2026-05-07 16:29 | -17.55224 | 16.87234 | 40027 ft | 472 kts | 183° |
| 2026-05-07 16:30 | -17.61766 | 16.87866 | 40027 ft | 472 kts | 182° |
| 2026-05-07 16:30 | -17.68302 | 16.88583 | 40027 ft | 473 kts | 182° |
| 2026-05-07 16:31 | -17.74847 | 16.89341 | 40027 ft | 473 kts | 182° |
| 2026-05-07 16:31 | -17.81389 | 16.90106 | 40028 ft | 473 kts | 182° |
| 2026-05-07 16:32 | -17.87930 | 16.90868 | 40027 ft | 473 kts | 182° |
| 2026-05-07 16:32 | -17.94472 | 16.91629 | 40018 ft | 473 kts | 182° |
| 2026-05-07 16:33 | -18.01013 | 16.92389 | 40034 ft | 473 kts | 182° |
| 2026-05-07 16:33 | -18.07556 | 16.93150 | 40032 ft | 473 kts | 182° |
| 2026-05-07 16:34 | -18.14098 | 16.93912 | 40040 ft | 473 kts | 182° |
| 2026-05-07 16:34 | -18.20633 | 16.94674 | 40033 ft | 473 kts | 182° |
| 2026-05-07 16:35 | -18.27190 | 16.95437 | 40043 ft | 474 kts | 182° |
| 2026-05-07 16:35 | -18.33754 | 16.96203 | 40052 ft | 475 kts | 182° |
| 2026-05-07 16:36 | -18.40319 | 16.96971 | 40051 ft | 475 kts | 182° |
| 2026-05-07 16:36 | -18.46887 | 16.97739 | 40060 ft | 475 kts | 182° |
| 2026-05-07 16:37 | -18.53450 | 16.98507 | 40053 ft | 475 kts | 182° |
| 2026-05-07 16:37 | -18.60014 | 16.99275 | 40058 ft | 475 kts | 182° |
| 2026-05-07 16:38 | -18.66574 | 17.00043 | 40075 ft | 475 kts | 182° |
| 2026-05-07 16:38 | -18.73139 | 17.00813 | 40068 ft | 474 kts | 182° |
| 2026-05-07 16:39 | -18.79650 | 17.01578 | 40082 ft | 473 kts | 182° |
| 2026-05-07 16:39 | -18.86191 | 17.02346 | 40082 ft | 473 kts | 182° |
| 2026-05-07 16:40 | -18.92742 | 17.03115 | 40091 ft | 473 kts | 182° |
| 2026-05-07 16:40 | -18.99289 | 17.03885 | 40091 ft | 473 kts | 182° |
| 2026-05-07 16:41 | -19.05820 | 17.04654 | 40099 ft | 473 kts | 182° |
| 2026-05-07 16:41 | -19.12379 | 17.05426 | 40101 ft | 473 kts | 182° |
| 2026-05-07 16:42 | -19.18921 | 17.06202 | 40106 ft | 473 kts | 182° |
| 2026-05-07 16:42 | -19.25467 | 17.07001 | 40110 ft | 473 kts | 182° |
| 2026-05-07 16:43 | -19.31998 | 17.07802 | 40109 ft | 472 kts | 182° |
| 2026-05-07 16:43 | -19.38521 | 17.08600 | 40117 ft | 472 kts | 181° |
| 2026-05-07 16:44 | -19.45053 | 17.09397 | 40131 ft | 472 kts | 181° |
| 2026-05-07 16:44 | -19.51584 | 17.10195 | 40137 ft | 472 kts | 181° |
| 2026-05-07 16:45 | -19.58110 | 17.10993 | 40136 ft | 472 kts | 181° |
| 2026-05-07 16:45 | -19.64641 | 17.11792 | 40137 ft | 472 kts | 181° |
| 2026-05-07 16:46 | -19.71169 | 17.12591 | 40139 ft | 472 kts | 181° |
| 2026-05-07 16:46 | -19.77699 | 17.13392 | 40146 ft | 472 kts | 181° |
| 2026-05-07 16:47 | -19.84226 | 17.14192 | 40147 ft | 472 kts | 181° |
| 2026-05-07 16:47 | -19.90753 | 17.14993 | 40146 ft | 472 kts | 181° |
| 2026-05-07 16:48 | -19.97282 | 17.15796 | 40146 ft | 472 kts | 181° |
| 2026-05-07 16:48 | -20.03810 | 17.16599 | 40148 ft | 472 kts | 181° |
| 2026-05-07 16:49 | -20.10318 | 17.17402 | 40146 ft | 470 kts | 181° |
| 2026-05-07 16:49 | -20.16813 | 17.18202 | 40155 ft | 470 kts | 181° |
| 2026-05-07 16:50 | -20.23313 | 17.19003 | 40156 ft | 470 kts | 181° |
| 2026-05-07 16:50 | -20.29804 | 17.19803 | 40156 ft | 470 kts | 181° |
| 2026-05-07 16:51 | -20.36298 | 17.20605 | 40156 ft | 470 kts | 181° |
| 2026-05-07 16:51 | -20.42793 | 17.21408 | 40156 ft | 470 kts | 181° |
| 2026-05-07 16:52 | -20.49285 | 17.22211 | 40156 ft | 470 kts | 181° |
| 2026-05-07 16:52 | -20.55783 | 17.23016 | 40165 ft | 470 kts | 181° |
| 2026-05-07 16:53 | -20.62275 | 17.23820 | 40165 ft | 470 kts | 181° |
| 2026-05-07 16:53 | -20.68770 | 17.24626 | 40165 ft | 470 kts | 181° |
| 2026-05-07 16:54 | -20.75262 | 17.25432 | 40165 ft | 470 kts | 181° |
| 2026-05-07 16:54 | -20.81754 | 17.26238 | 40174 ft | 470 kts | 181° |
| 2026-05-07 16:55 | -20.88251 | 17.27046 | 40174 ft | 469 kts | 181° |
| 2026-05-07 16:55 | -20.94692 | 17.27845 | 40174 ft | 469 kts | 181° |
| 2026-05-07 16:56 | -21.01164 | 17.28649 | 40174 ft | 468 kts | 181° |
| 2026-05-07 16:56 | -21.10881 | 17.29857 | 40187 ft | 468 kts | 181° |
| 2026-05-07 16:57 | -21.16307 | 17.30533 | 40181 ft | 468 kts | 181° |
| 2026-05-07 16:57 | -21.23829 | 17.31470 | 40181 ft | 468 kts | 182° |
| 2026-05-07 16:58 | -21.30301 | 17.32278 | 40193 ft | 468 kts | 182° |
| 2026-05-07 16:58 | -21.35725 | 17.32955 | 40193 ft | 468 kts | 182° |
| 2026-05-07 16:59 | -21.42196 | 17.33763 | 40189 ft | 468 kts | 182° |
| 2026-05-07 16:59 | -21.48669 | 17.34573 | 40189 ft | 468 kts | 182° |
| 2026-05-07 17:00 | -21.55146 | 17.35384 | 40191 ft | 468 kts | 182° |
| 2026-05-07 17:00 | -21.61621 | 17.36195 | 40188 ft | 468 kts | 182° |
| 2026-05-07 17:01 | -21.68052 | 17.37001 | 40197 ft | 468 kts | 182° |
| 2026-05-07 17:01 | -21.74525 | 17.37814 | 40203 ft | 468 kts | 182° |
| 2026-05-07 17:02 | -21.81040 | 17.38633 | 40205 ft | 468 kts | 182° |
| 2026-05-07 17:02 | -21.87514 | 17.39447 | 40202 ft | 468 kts | 182° |
| 2026-05-07 17:03 | -21.93940 | 17.40256 | 40204 ft | 468 kts | 182° |
| 2026-05-07 17:03 | -22.00409 | 17.41071 | 40204 ft | 468 kts | 182° |
| 2026-05-07 17:04 | -22.06878 | 17.41887 | 40199 ft | 467 kts | 182° |
| 2026-05-07 17:04 | -22.13333 | 17.42702 | 40196 ft | 467 kts | 182° |
| 2026-05-07 17:05 | -22.19786 | 17.43517 | 40192 ft | 467 kts | 182° |
| 2026-05-07 17:05 | -22.26241 | 17.44333 | 40189 ft | 467 kts | 182° |
| 2026-05-07 17:06 | -22.32689 | 17.45148 | 40195 ft | 467 kts | 182° |
| 2026-05-07 17:06 | -22.39144 | 17.45966 | 40180 ft | 467 kts | 182° |
| 2026-05-07 17:07 | -22.45598 | 17.46785 | 40189 ft | 467 kts | 182° |
| 2026-05-07 17:07 | -22.52047 | 17.47663 | 40181 ft | 469 kts | 180° |
| 2026-05-07 17:08 | -22.58509 | 17.48751 | 40181 ft | 470 kts | 179° |
| 2026-05-07 17:08 | -22.64970 | 17.49860 | 40190 ft | 470 kts | 180° |
| 2026-05-07 17:09 | -22.71420 | 17.50937 | 40177 ft | 469 kts | 180° |
| 2026-05-07 17:09 | -22.77878 | 17.51999 | 40181 ft | 469 kts | 180° |
| 2026-05-07 17:10 | -22.84291 | 17.53051 | 40181 ft | 469 kts | 180° |
| 2026-05-07 17:10 | -22.90741 | 17.54110 | 40175 ft | 469 kts | 180° |
| 2026-05-07 17:11 | -22.97239 | 17.55180 | 40174 ft | 469 kts | 180° |
| 2026-05-07 17:11 | -23.03694 | 17.56244 | 40179 ft | 469 kts | 180° |
| 2026-05-07 17:12 | -23.10102 | 17.57301 | 40184 ft | 469 kts | 180° |
| 2026-05-07 17:12 | -23.16557 | 17.58367 | 40176 ft | 469 kts | 180° |
| 2026-05-07 17:13 | -23.23008 | 17.59433 | 40174 ft | 469 kts | 180° |
| 2026-05-07 17:13 | -23.29458 | 17.60503 | 40174 ft | 469 kts | 180° |
| 2026-05-07 17:14 | -23.35909 | 17.61561 | 40174 ft | 469 kts | 180° |
| 2026-05-07 17:14 | -23.42357 | 17.62618 | 40174 ft | 469 kts | 180° |
| 2026-05-07 17:15 | -23.48810 | 17.63680 | 40187 ft | 469 kts | 180° |
| 2026-05-07 17:15 | -23.55274 | 17.64738 | 40220 ft | 470 kts | 180° |
| 2026-05-07 17:16 | -23.61741 | 17.65803 | 40216 ft | 470 kts | 180° |
| 2026-05-07 17:16 | -23.68208 | 17.66870 | 40211 ft | 470 kts | 180° |
| 2026-05-07 17:17 | -23.74678 | 17.67937 | 40211 ft | 470 kts | 180° |
| 2026-05-07 17:17 | -23.81144 | 17.69000 | 40211 ft | 470 kts | 180° |
| 2026-05-07 17:18 | -23.87617 | 17.70051 | 40204 ft | 470 kts | 181° |
| 2026-05-07 17:18 | -23.94084 | 17.71100 | 40201 ft | 470 kts | 181° |
| 2026-05-07 17:19 | -24.00551 | 17.72153 | 40202 ft | 470 kts | 180° |
| 2026-05-07 17:19 | -24.07024 | 17.73209 | 40204 ft | 470 kts | 180° |
| 2026-05-07 17:20 | -24.13489 | 17.74265 | 40193 ft | 470 kts | 180° |
| 2026-05-07 17:20 | -24.19960 | 17.75323 | 40193 ft | 470 kts | 180° |
| 2026-05-07 17:21 | -24.26426 | 17.76381 | 40193 ft | 470 kts | 180° |
| 2026-05-07 17:21 | -24.32891 | 17.77441 | 40181 ft | 470 kts | 180° |
| 2026-05-07 17:22 | -24.39324 | 17.78496 | 40180 ft | 470 kts | 180° |
| 2026-05-07 17:22 | -24.45782 | 17.79557 | 40177 ft | 469 kts | 180° |
| 2026-05-07 17:23 | -24.52228 | 17.80612 | 40174 ft | 468 kts | 181° |
| 2026-05-07 17:23 | -24.58677 | 17.81646 | 40174 ft | 468 kts | 181° |
| 2026-05-07 17:24 | -24.65126 | 17.82678 | 40169 ft | 468 kts | 181° |